﻿<?xml version="1.0" encoding="UTF-8" standalone="no" ?>
<gpx xmlns="http://www.topografix.com/GPX/1/1" creator="CompeGPS" version="1.1" xmlns:xsi="http://www.w3.org/2001/XMLSchema-instance" xsi:schemaLocation="http://www.topografix.com/GPX/1/1 http://www.topografix.com/GPX/1/1/gpx.xsd http://www.garmin.com/xmlschemas/GpxExtensions/v3 http://www.garmin.com/xmlschemas/GpxExtensionsv3.xsd http://www.garmin.com/xmlschemas/TrackPointExtension/v1 http://www.garmin.com/xmlschemas/TrackPointExtensionv1.xsd" xmlns:gpxtpx="http://www.garmin.com/xmlschemas/TrackPointExtension/v1">
  <metadata>
    <link href="http://www.compegps.com">
      <text>CompeGPS TEAM, SL</text>
    </link>
    <time>2013-05-02T14:32:07Z</time>
    <bounds maxlat="42.965016" maxlon="0.752011" minlat="42.927802" minlon="0.722128"/>
  </metadata>
<wpt lat="42.965016" lon="0.749631">
  <ele>960</ele>
  <name>Le Couage</name>
</wpt>
<wpt lat="42.940476" lon="0.743584">
  <ele>1210</ele>
  <name>Bif. cab. Arguenos</name>
</wpt>
<wpt lat="42.939663" lon="0.722533">
  <ele>1350</ele>
  <name>Cab. du col de Caube</name>
</wpt>
<wpt lat="42.929814" lon="0.730581">
  <ele>1480</ele>
  <name>Fin du GRP</name>
</wpt>
<wpt lat="42.927802" lon="0.752011">
  <ele>1858</ele>
  <name>Pic de l Escalette</name>
</wpt>
  <trk>
    <name>Pic de l Escalette</name>
    <trkseg>
      <trkpt lat="42.965016" lon="0.749631">
        <ele>966.7</ele>
        <time>2013-04-30T06:55:20Z</time>
        <name>Le Couage</name>
      </trkpt>
      <trkpt lat="42.964920" lon="0.749715">
        <ele>967.7</ele>
        <time>2013-04-30T06:55:36Z</time>
      </trkpt>
      <trkpt lat="42.964911" lon="0.749846">
        <ele>969.6</ele>
        <time>2013-04-30T06:55:48Z</time>
      </trkpt>
      <trkpt lat="42.964857" lon="0.749974">
        <ele>969.2</ele>
        <time>2013-04-30T06:56:04Z</time>
      </trkpt>
      <trkpt lat="42.964818" lon="0.750101">
        <ele>969.2</ele>
        <time>2013-04-30T06:56:17Z</time>
      </trkpt>
      <trkpt lat="42.964787" lon="0.750235">
        <ele>972.0</ele>
        <time>2013-04-30T06:56:28Z</time>
      </trkpt>
      <trkpt lat="42.964761" lon="0.750355">
        <ele>972.0</ele>
        <time>2013-04-30T06:56:39Z</time>
      </trkpt>
      <trkpt lat="42.964667" lon="0.750415">
        <ele>973.0</ele>
        <time>2013-04-30T06:56:49Z</time>
      </trkpt>
      <trkpt lat="42.964575" lon="0.750472">
        <ele>974.4</ele>
        <time>2013-04-30T06:56:59Z</time>
      </trkpt>
      <trkpt lat="42.964481" lon="0.750496">
        <ele>975.9</ele>
        <time>2013-04-30T06:57:11Z</time>
      </trkpt>
      <trkpt lat="42.964338" lon="0.750534">
        <ele>977.8</ele>
        <time>2013-04-30T06:57:26Z</time>
      </trkpt>
      <trkpt lat="42.964180" lon="0.750623">
        <ele>978.8</ele>
        <time>2013-04-30T06:57:42Z</time>
      </trkpt>
      <trkpt lat="42.964024" lon="0.750671">
        <ele>981.2</ele>
        <time>2013-04-30T06:57:57Z</time>
      </trkpt>
      <trkpt lat="42.963888" lon="0.750712">
        <ele>982.1</ele>
        <time>2013-04-30T06:58:09Z</time>
      </trkpt>
      <trkpt lat="42.963765" lon="0.750724">
        <ele>983.1</ele>
        <time>2013-04-30T06:58:21Z</time>
      </trkpt>
      <trkpt lat="42.963643" lon="0.750739">
        <ele>985.0</ele>
        <time>2013-04-30T06:58:33Z</time>
      </trkpt>
      <trkpt lat="42.963522" lon="0.750743">
        <ele>987.4</ele>
        <time>2013-04-30T06:58:47Z</time>
      </trkpt>
      <trkpt lat="42.963350" lon="0.750780">
        <ele>989.8</ele>
        <time>2013-04-30T06:59:04Z</time>
      </trkpt>
      <trkpt lat="42.963199" lon="0.750854">
        <ele>991.7</ele>
        <time>2013-04-30T06:59:19Z</time>
      </trkpt>
      <trkpt lat="42.963068" lon="0.750915">
        <ele>992.2</ele>
        <time>2013-04-30T06:59:31Z</time>
      </trkpt>
      <trkpt lat="42.962924" lon="0.751026">
        <ele>994.1</ele>
        <time>2013-04-30T07:00:06Z</time>
      </trkpt>
      <trkpt lat="42.962823" lon="0.751049">
        <ele>996.1</ele>
        <time>2013-04-30T07:00:20Z</time>
      </trkpt>
      <trkpt lat="42.962637" lon="0.751080">
        <ele>997.5</ele>
        <time>2013-04-30T07:00:32Z</time>
      </trkpt>
      <trkpt lat="42.962491" lon="0.751125">
        <ele>1000.4</ele>
        <time>2013-04-30T07:00:43Z</time>
      </trkpt>
      <trkpt lat="42.962354" lon="0.751225">
        <ele>1001.8</ele>
        <time>2013-04-30T07:00:55Z</time>
      </trkpt>
      <trkpt lat="42.962229" lon="0.751349">
        <ele>1003.8</ele>
        <time>2013-04-30T07:01:04Z</time>
      </trkpt>
      <trkpt lat="42.961947" lon="0.751553">
        <ele>1006.6</ele>
        <time>2013-04-30T07:01:24Z</time>
      </trkpt>
      <trkpt lat="42.961738" lon="0.751497">
        <ele>1009.0</ele>
        <time>2013-04-30T07:01:41Z</time>
      </trkpt>
      <trkpt lat="42.961596" lon="0.751374">
        <ele>1010.5</ele>
        <time>2013-04-30T07:01:55Z</time>
      </trkpt>
      <trkpt lat="42.961475" lon="0.751278">
        <ele>1012.4</ele>
        <time>2013-04-30T07:02:07Z</time>
      </trkpt>
      <trkpt lat="42.961386" lon="0.751203">
        <ele>1013.8</ele>
        <time>2013-04-30T07:02:17Z</time>
      </trkpt>
      <trkpt lat="42.961303" lon="0.751124">
        <ele>1015.3</ele>
        <time>2013-04-30T07:02:26Z</time>
      </trkpt>
      <trkpt lat="42.961214" lon="0.751015">
        <ele>1016.2</ele>
        <time>2013-04-30T07:02:37Z</time>
      </trkpt>
      <trkpt lat="42.961120" lon="0.750889">
        <ele>1017.7</ele>
        <time>2013-04-30T07:02:50Z</time>
      </trkpt>
      <trkpt lat="42.961043" lon="0.750759">
        <ele>1019.6</ele>
        <time>2013-04-30T07:03:01Z</time>
      </trkpt>
      <trkpt lat="42.960968" lon="0.750626">
        <ele>1021.1</ele>
        <time>2013-04-30T07:03:11Z</time>
      </trkpt>
      <trkpt lat="42.960902" lon="0.750470">
        <ele>1022.0</ele>
        <time>2013-04-30T07:03:22Z</time>
      </trkpt>
      <trkpt lat="42.960831" lon="0.750347">
        <ele>1023.9</ele>
        <time>2013-04-30T07:03:31Z</time>
      </trkpt>
      <trkpt lat="42.960740" lon="0.750242">
        <ele>1025.4</ele>
        <time>2013-04-30T07:03:41Z</time>
      </trkpt>
      <trkpt lat="42.960648" lon="0.750135">
        <ele>1026.8</ele>
        <time>2013-04-30T07:03:53Z</time>
      </trkpt>
      <trkpt lat="42.960552" lon="0.750037">
        <ele>1028.3</ele>
        <time>2013-04-30T07:04:03Z</time>
      </trkpt>
      <trkpt lat="42.960466" lon="0.749944">
        <ele>1029.2</ele>
        <time>2013-04-30T07:04:11Z</time>
      </trkpt>
      <trkpt lat="42.960360" lon="0.749846">
        <ele>1030.7</ele>
        <time>2013-04-30T07:04:23Z</time>
      </trkpt>
      <trkpt lat="42.960248" lon="0.749742">
        <ele>1032.6</ele>
        <time>2013-04-30T07:04:34Z</time>
      </trkpt>
      <trkpt lat="42.960126" lon="0.749640">
        <ele>1033.6</ele>
        <time>2013-04-30T07:04:45Z</time>
      </trkpt>
      <trkpt lat="42.960010" lon="0.749582">
        <ele>1036.0</ele>
        <time>2013-04-30T07:04:58Z</time>
      </trkpt>
      <trkpt lat="42.959819" lon="0.749517">
        <ele>1037.9</ele>
        <time>2013-04-30T07:05:11Z</time>
      </trkpt>
      <trkpt lat="42.959676" lon="0.749550">
        <ele>1039.3</ele>
        <time>2013-04-30T07:05:23Z</time>
      </trkpt>
      <trkpt lat="42.959552" lon="0.749585">
        <ele>1040.8</ele>
        <time>2013-04-30T07:05:35Z</time>
      </trkpt>
      <trkpt lat="42.959393" lon="0.749635">
        <ele>1041.7</ele>
        <time>2013-04-30T07:05:48Z</time>
      </trkpt>
      <trkpt lat="42.959280" lon="0.749762">
        <ele>1043.7</ele>
        <time>2013-04-30T07:05:59Z</time>
      </trkpt>
      <trkpt lat="42.959211" lon="0.749882">
        <ele>1045.1</ele>
        <time>2013-04-30T07:06:10Z</time>
      </trkpt>
      <trkpt lat="42.959126" lon="0.749968">
        <ele>1047.5</ele>
        <time>2013-04-30T07:06:24Z</time>
      </trkpt>
      <trkpt lat="42.958984" lon="0.749924">
        <ele>1048.4</ele>
        <time>2013-04-30T07:06:36Z</time>
      </trkpt>
      <trkpt lat="42.958865" lon="0.749845">
        <ele>1049.9</ele>
        <time>2013-04-30T07:06:46Z</time>
      </trkpt>
      <trkpt lat="42.958752" lon="0.749845">
        <ele>1051.3</ele>
        <time>2013-04-30T07:06:58Z</time>
      </trkpt>
      <trkpt lat="42.958568" lon="0.749892">
        <ele>1054.2</ele>
        <time>2013-04-30T07:07:12Z</time>
      </trkpt>
      <trkpt lat="42.958428" lon="0.749860">
        <ele>1056.2</ele>
        <time>2013-04-30T07:07:27Z</time>
      </trkpt>
      <trkpt lat="42.958279" lon="0.749831">
        <ele>1058.1</ele>
        <time>2013-04-30T07:07:42Z</time>
      </trkpt>
      <trkpt lat="42.958119" lon="0.749801">
        <ele>1059.5</ele>
        <time>2013-04-30T07:07:54Z</time>
      </trkpt>
      <trkpt lat="42.957982" lon="0.749759">
        <ele>1060.9</ele>
        <time>2013-04-30T07:08:05Z</time>
      </trkpt>
      <trkpt lat="42.957867" lon="0.749810">
        <ele>1062.4</ele>
        <time>2013-04-30T07:08:16Z</time>
      </trkpt>
      <trkpt lat="42.957744" lon="0.749893">
        <ele>1062.9</ele>
        <time>2013-04-30T07:08:29Z</time>
      </trkpt>
      <trkpt lat="42.957632" lon="0.749969">
        <ele>1064.8</ele>
        <time>2013-04-30T07:08:41Z</time>
      </trkpt>
      <trkpt lat="42.957530" lon="0.750059">
        <ele>1067.7</ele>
        <time>2013-04-30T07:08:53Z</time>
      </trkpt>
      <trkpt lat="42.957383" lon="0.750124">
        <ele>1067.7</ele>
        <time>2013-04-30T07:09:09Z</time>
      </trkpt>
      <trkpt lat="42.957271" lon="0.750166">
        <ele>1069.1</ele>
        <time>2013-04-30T07:09:21Z</time>
      </trkpt>
      <trkpt lat="42.957108" lon="0.750188">
        <ele>1072.0</ele>
        <time>2013-04-30T07:09:37Z</time>
      </trkpt>
      <trkpt lat="42.956933" lon="0.750240">
        <ele>1073.9</ele>
        <time>2013-04-30T07:09:54Z</time>
      </trkpt>
      <trkpt lat="42.956748" lon="0.750191">
        <ele>1075.8</ele>
        <time>2013-04-30T07:10:12Z</time>
      </trkpt>
      <trkpt lat="42.956676" lon="0.750089">
        <ele>1077.8</ele>
        <time>2013-04-30T07:10:23Z</time>
      </trkpt>
      <trkpt lat="42.956567" lon="0.749901">
        <ele>1079.2</ele>
        <time>2013-04-30T07:10:37Z</time>
      </trkpt>
      <trkpt lat="42.956532" lon="0.749761">
        <ele>1080.2</ele>
        <time>2013-04-30T07:10:46Z</time>
      </trkpt>
      <trkpt lat="42.956494" lon="0.749625">
        <ele>1081.1</ele>
        <time>2013-04-30T07:10:56Z</time>
      </trkpt>
      <trkpt lat="42.956468" lon="0.749467">
        <ele>1082.6</ele>
        <time>2013-04-30T07:11:06Z</time>
      </trkpt>
      <trkpt lat="42.956484" lon="0.749270">
        <ele>1083.5</ele>
        <time>2013-04-30T07:11:16Z</time>
      </trkpt>
      <trkpt lat="42.956447" lon="0.749166">
        <ele>1084.5</ele>
        <time>2013-04-30T07:11:26Z</time>
      </trkpt>
      <trkpt lat="42.956433" lon="0.749030">
        <ele>1085.9</ele>
        <time>2013-04-30T07:11:36Z</time>
      </trkpt>
      <trkpt lat="42.956475" lon="0.748888">
        <ele>1088.3</ele>
        <time>2013-04-30T07:12:03Z</time>
      </trkpt>
      <trkpt lat="42.956407" lon="0.748738">
        <ele>1089.8</ele>
        <time>2013-04-30T07:12:13Z</time>
      </trkpt>
      <trkpt lat="42.956331" lon="0.748628">
        <ele>1091.2</ele>
        <time>2013-04-30T07:12:20Z</time>
      </trkpt>
      <trkpt lat="42.956254" lon="0.748508">
        <ele>1093.2</ele>
        <time>2013-04-30T07:12:28Z</time>
      </trkpt>
      <trkpt lat="42.956170" lon="0.748387">
        <ele>1094.6</ele>
        <time>2013-04-30T07:12:37Z</time>
      </trkpt>
      <trkpt lat="42.956055" lon="0.748264">
        <ele>1096.5</ele>
        <time>2013-04-30T07:12:49Z</time>
      </trkpt>
      <trkpt lat="42.955818" lon="0.748198">
        <ele>1097.5</ele>
        <time>2013-04-30T07:13:00Z</time>
      </trkpt>
      <trkpt lat="42.955771" lon="0.748047">
        <ele>1099.4</ele>
        <time>2013-04-30T07:13:12Z</time>
      </trkpt>
      <trkpt lat="42.955692" lon="0.747949">
        <ele>1100.4</ele>
        <time>2013-04-30T07:13:24Z</time>
      </trkpt>
      <trkpt lat="42.955567" lon="0.747875">
        <ele>1101.8</ele>
        <time>2013-04-30T07:13:37Z</time>
      </trkpt>
      <trkpt lat="42.955431" lon="0.747884">
        <ele>1102.8</ele>
        <time>2013-04-30T07:13:48Z</time>
      </trkpt>
      <trkpt lat="42.955315" lon="0.747942">
        <ele>1104.2</ele>
        <time>2013-04-30T07:14:01Z</time>
      </trkpt>
      <trkpt lat="42.955209" lon="0.748008">
        <ele>1106.1</ele>
        <time>2013-04-30T07:14:12Z</time>
      </trkpt>
      <trkpt lat="42.955112" lon="0.748073">
        <ele>1107.1</ele>
        <time>2013-04-30T07:14:22Z</time>
      </trkpt>
      <trkpt lat="42.955015" lon="0.748149">
        <ele>1108.1</ele>
        <time>2013-04-30T07:14:32Z</time>
      </trkpt>
      <trkpt lat="42.954915" lon="0.748203">
        <ele>1108.5</ele>
        <time>2013-04-30T07:14:41Z</time>
      </trkpt>
      <trkpt lat="42.954839" lon="0.748292">
        <ele>1109.0</ele>
        <time>2013-04-30T07:14:50Z</time>
      </trkpt>
      <trkpt lat="42.954744" lon="0.748355">
        <ele>1109.5</ele>
        <time>2013-04-30T07:14:59Z</time>
      </trkpt>
      <trkpt lat="42.954649" lon="0.748435">
        <ele>1109.5</ele>
        <time>2013-04-30T07:15:08Z</time>
      </trkpt>
      <trkpt lat="42.954530" lon="0.748495">
        <ele>1110.5</ele>
        <time>2013-04-30T07:15:18Z</time>
      </trkpt>
      <trkpt lat="42.954382" lon="0.748565">
        <ele>1110.9</ele>
        <time>2013-04-30T07:15:31Z</time>
      </trkpt>
      <trkpt lat="42.954244" lon="0.748659">
        <ele>1111.4</ele>
        <time>2013-04-30T07:15:45Z</time>
      </trkpt>
      <trkpt lat="42.954124" lon="0.748711">
        <ele>1111.9</ele>
        <time>2013-04-30T07:16:01Z</time>
      </trkpt>
      <trkpt lat="42.953927" lon="0.748703">
        <ele>1112.4</ele>
        <time>2013-04-30T07:16:20Z</time>
      </trkpt>
      <trkpt lat="42.953747" lon="0.748680">
        <ele>1111.9</ele>
        <time>2013-04-30T07:16:33Z</time>
      </trkpt>
      <trkpt lat="42.953583" lon="0.748660">
        <ele>1112.4</ele>
        <time>2013-04-30T07:16:44Z</time>
      </trkpt>
      <trkpt lat="42.953454" lon="0.748650">
        <ele>1112.4</ele>
        <time>2013-04-30T07:16:56Z</time>
      </trkpt>
      <trkpt lat="42.953295" lon="0.748662">
        <ele>1111.9</ele>
        <time>2013-04-30T07:17:10Z</time>
      </trkpt>
      <trkpt lat="42.953194" lon="0.748492">
        <ele>1113.3</ele>
        <time>2013-04-30T07:17:23Z</time>
      </trkpt>
      <trkpt lat="42.953129" lon="0.748287">
        <ele>1114.3</ele>
        <time>2013-04-30T07:17:35Z</time>
      </trkpt>
      <trkpt lat="42.953116" lon="0.748123">
        <ele>1114.8</ele>
        <time>2013-04-30T07:17:47Z</time>
      </trkpt>
      <trkpt lat="42.953091" lon="0.747962">
        <ele>1115.3</ele>
        <time>2013-04-30T07:17:58Z</time>
      </trkpt>
      <trkpt lat="42.953060" lon="0.747810">
        <ele>1117.2</ele>
        <time>2013-04-30T07:18:11Z</time>
      </trkpt>
      <trkpt lat="42.953019" lon="0.747676">
        <ele>1118.6</ele>
        <time>2013-04-30T07:18:22Z</time>
      </trkpt>
      <trkpt lat="42.952955" lon="0.747525">
        <ele>1120.6</ele>
        <time>2013-04-30T07:18:36Z</time>
      </trkpt>
      <trkpt lat="42.952922" lon="0.747391">
        <ele>1122.0</ele>
        <time>2013-04-30T07:18:48Z</time>
      </trkpt>
      <trkpt lat="42.952846" lon="0.747252">
        <ele>1123.4</ele>
        <time>2013-04-30T07:19:00Z</time>
      </trkpt>
      <trkpt lat="42.952754" lon="0.747112">
        <ele>1125.8</ele>
        <time>2013-04-30T07:19:15Z</time>
      </trkpt>
      <trkpt lat="42.952705" lon="0.746852">
        <ele>1127.8</ele>
        <time>2013-04-30T07:19:28Z</time>
      </trkpt>
      <trkpt lat="42.952745" lon="0.746680">
        <ele>1129.7</ele>
        <time>2013-04-30T07:19:40Z</time>
      </trkpt>
      <trkpt lat="42.952726" lon="0.746566">
        <ele>1131.6</ele>
        <time>2013-04-30T07:19:52Z</time>
      </trkpt>
      <trkpt lat="42.952699" lon="0.746467">
        <ele>1133.5</ele>
        <time>2013-04-30T07:20:01Z</time>
      </trkpt>
      <trkpt lat="42.952609" lon="0.746353">
        <ele>1134.5</ele>
        <time>2013-04-30T07:20:12Z</time>
      </trkpt>
      <trkpt lat="42.952518" lon="0.746252">
        <ele>1136.4</ele>
        <time>2013-04-30T07:20:23Z</time>
      </trkpt>
      <trkpt lat="42.952478" lon="0.746138">
        <ele>1137.4</ele>
        <time>2013-04-30T07:20:32Z</time>
      </trkpt>
      <trkpt lat="42.952376" lon="0.746063">
        <ele>1138.3</ele>
        <time>2013-04-30T07:20:44Z</time>
      </trkpt>
      <trkpt lat="42.952257" lon="0.745984">
        <ele>1139.8</ele>
        <time>2013-04-30T07:20:58Z</time>
      </trkpt>
      <trkpt lat="42.952168" lon="0.745904">
        <ele>1141.7</ele>
        <time>2013-04-30T07:21:07Z</time>
      </trkpt>
      <trkpt lat="42.952072" lon="0.745841">
        <ele>1147.9</ele>
        <time>2013-04-30T07:21:16Z</time>
      </trkpt>
      <trkpt lat="42.951973" lon="0.745766">
        <ele>1145.6</ele>
        <time>2013-04-30T07:21:25Z</time>
      </trkpt>
      <trkpt lat="42.951859" lon="0.745701">
        <ele>1152.3</ele>
        <time>2013-04-30T07:21:36Z</time>
      </trkpt>
      <trkpt lat="42.951753" lon="0.745627">
        <ele>1142.7</ele>
        <time>2013-04-30T07:21:47Z</time>
      </trkpt>
      <trkpt lat="42.951662" lon="0.745532">
        <ele>1149.4</ele>
        <time>2013-04-30T07:22:01Z</time>
      </trkpt>
      <trkpt lat="42.951565" lon="0.745468">
        <ele>1151.8</ele>
        <time>2013-04-30T07:22:13Z</time>
      </trkpt>
      <trkpt lat="42.951431" lon="0.745373">
        <ele>1153.2</ele>
        <time>2013-04-30T07:22:25Z</time>
      </trkpt>
      <trkpt lat="42.951316" lon="0.745347">
        <ele>1155.6</ele>
        <time>2013-04-30T07:22:38Z</time>
      </trkpt>
      <trkpt lat="42.951162" lon="0.745328">
        <ele>1157.6</ele>
        <time>2013-04-30T07:22:53Z</time>
      </trkpt>
      <trkpt lat="42.951024" lon="0.745347">
        <ele>1159.5</ele>
        <time>2013-04-30T07:23:06Z</time>
      </trkpt>
      <trkpt lat="42.950983" lon="0.745316">
        <ele>1160.4</ele>
        <time>2013-04-30T07:24:20Z</time>
      </trkpt>
      <trkpt lat="42.950880" lon="0.745353">
        <ele>1161.9</ele>
        <time>2013-04-30T07:26:08Z</time>
      </trkpt>
      <trkpt lat="42.950748" lon="0.745364">
        <ele>1163.3</ele>
        <time>2013-04-30T07:26:20Z</time>
      </trkpt>
      <trkpt lat="42.950678" lon="0.745424">
        <ele>1165.3</ele>
        <time>2013-04-30T07:26:48Z</time>
      </trkpt>
      <trkpt lat="42.950601" lon="0.745582">
        <ele>1166.2</ele>
        <time>2013-04-30T07:27:04Z</time>
      </trkpt>
      <trkpt lat="42.950513" lon="0.745682">
        <ele>1167.7</ele>
        <time>2013-04-30T07:27:14Z</time>
      </trkpt>
      <trkpt lat="42.950417" lon="0.745738">
        <ele>1168.6</ele>
        <time>2013-04-30T07:27:25Z</time>
      </trkpt>
      <trkpt lat="42.950306" lon="0.745817">
        <ele>1170.1</ele>
        <time>2013-04-30T07:27:36Z</time>
      </trkpt>
      <trkpt lat="42.950206" lon="0.745922">
        <ele>1171.0</ele>
        <time>2013-04-30T07:27:50Z</time>
      </trkpt>
      <trkpt lat="42.950115" lon="0.746002">
        <ele>1172.0</ele>
        <time>2013-04-30T07:28:01Z</time>
      </trkpt>
      <trkpt lat="42.950018" lon="0.746091">
        <ele>1172.5</ele>
        <time>2013-04-30T07:28:13Z</time>
      </trkpt>
      <trkpt lat="42.949926" lon="0.746178">
        <ele>1173.4</ele>
        <time>2013-04-30T07:28:25Z</time>
      </trkpt>
      <trkpt lat="42.949817" lon="0.746269">
        <ele>1174.9</ele>
        <time>2013-04-30T07:28:38Z</time>
      </trkpt>
      <trkpt lat="42.949681" lon="0.746331">
        <ele>1175.3</ele>
        <time>2013-04-30T07:28:51Z</time>
      </trkpt>
      <trkpt lat="42.949551" lon="0.746344">
        <ele>1176.8</ele>
        <time>2013-04-30T07:29:04Z</time>
      </trkpt>
      <trkpt lat="42.949467" lon="0.746323">
        <ele>1178.2</ele>
        <time>2013-04-30T07:29:17Z</time>
      </trkpt>
      <trkpt lat="42.949342" lon="0.746319">
        <ele>1179.2</ele>
        <time>2013-04-30T07:29:29Z</time>
      </trkpt>
      <trkpt lat="42.949239" lon="0.746330">
        <ele>1180.6</ele>
        <time>2013-04-30T07:29:40Z</time>
      </trkpt>
      <trkpt lat="42.949093" lon="0.746368">
        <ele>1182.1</ele>
        <time>2013-04-30T07:29:56Z</time>
      </trkpt>
      <trkpt lat="42.948981" lon="0.746345">
        <ele>1182.6</ele>
        <time>2013-04-30T07:30:08Z</time>
      </trkpt>
      <trkpt lat="42.948887" lon="0.746316">
        <ele>1183.0</ele>
        <time>2013-04-30T07:30:22Z</time>
      </trkpt>
      <trkpt lat="42.948780" lon="0.746191">
        <ele>1184.0</ele>
        <time>2013-04-30T07:30:36Z</time>
      </trkpt>
      <trkpt lat="42.948692" lon="0.746068">
        <ele>1184.0</ele>
        <time>2013-04-30T07:30:48Z</time>
      </trkpt>
      <trkpt lat="42.948626" lon="0.745954">
        <ele>1185.0</ele>
        <time>2013-04-30T07:31:00Z</time>
      </trkpt>
      <trkpt lat="42.948581" lon="0.745799">
        <ele>1186.4</ele>
        <time>2013-04-30T07:31:13Z</time>
      </trkpt>
      <trkpt lat="42.948524" lon="0.745680">
        <ele>1186.4</ele>
        <time>2013-04-30T07:31:23Z</time>
      </trkpt>
      <trkpt lat="42.948454" lon="0.745568">
        <ele>1186.9</ele>
        <time>2013-04-30T07:31:33Z</time>
      </trkpt>
      <trkpt lat="42.948370" lon="0.745505">
        <ele>1186.9</ele>
        <time>2013-04-30T07:31:42Z</time>
      </trkpt>
      <trkpt lat="42.948277" lon="0.745447">
        <ele>1187.8</ele>
        <time>2013-04-30T07:31:52Z</time>
      </trkpt>
      <trkpt lat="42.948183" lon="0.745411">
        <ele>1188.8</ele>
        <time>2013-04-30T07:32:02Z</time>
      </trkpt>
      <trkpt lat="42.948058" lon="0.745387">
        <ele>1189.8</ele>
        <time>2013-04-30T07:32:14Z</time>
      </trkpt>
      <trkpt lat="42.947933" lon="0.745328">
        <ele>1190.2</ele>
        <time>2013-04-30T07:32:26Z</time>
      </trkpt>
      <trkpt lat="42.947807" lon="0.745289">
        <ele>1190.7</ele>
        <time>2013-04-30T07:32:39Z</time>
      </trkpt>
      <trkpt lat="42.947689" lon="0.745312">
        <ele>1190.7</ele>
        <time>2013-04-30T07:32:49Z</time>
      </trkpt>
      <trkpt lat="42.947582" lon="0.745376">
        <ele>1191.7</ele>
        <time>2013-04-30T07:33:00Z</time>
      </trkpt>
      <trkpt lat="42.947528" lon="0.745553">
        <ele>1192.7</ele>
        <time>2013-04-30T07:33:09Z</time>
      </trkpt>
      <trkpt lat="42.947452" lon="0.745641">
        <ele>1193.1</ele>
        <time>2013-04-30T07:33:19Z</time>
      </trkpt>
      <trkpt lat="42.947350" lon="0.745682">
        <ele>1193.6</ele>
        <time>2013-04-30T07:33:28Z</time>
      </trkpt>
      <trkpt lat="42.947245" lon="0.745678">
        <ele>1194.1</ele>
        <time>2013-04-30T07:33:38Z</time>
      </trkpt>
      <trkpt lat="42.947113" lon="0.745672">
        <ele>1194.1</ele>
        <time>2013-04-30T07:33:49Z</time>
      </trkpt>
      <trkpt lat="42.946989" lon="0.745677">
        <ele>1194.6</ele>
        <time>2013-04-30T07:33:58Z</time>
      </trkpt>
      <trkpt lat="42.946872" lon="0.745674">
        <ele>1196.0</ele>
        <time>2013-04-30T07:34:08Z</time>
      </trkpt>
      <trkpt lat="42.946774" lon="0.745687">
        <ele>1195.5</ele>
        <time>2013-04-30T07:34:18Z</time>
      </trkpt>
      <trkpt lat="42.946636" lon="0.745634">
        <ele>1197.0</ele>
        <time>2013-04-30T07:34:32Z</time>
      </trkpt>
      <trkpt lat="42.946513" lon="0.745588">
        <ele>1196.5</ele>
        <time>2013-04-30T07:34:43Z</time>
      </trkpt>
      <trkpt lat="42.946394" lon="0.745618">
        <ele>1197.0</ele>
        <time>2013-04-30T07:34:54Z</time>
      </trkpt>
      <trkpt lat="42.946281" lon="0.745686">
        <ele>1197.9</ele>
        <time>2013-04-30T07:35:06Z</time>
      </trkpt>
      <trkpt lat="42.946173" lon="0.745622">
        <ele>1197.9</ele>
        <time>2013-04-30T07:35:16Z</time>
      </trkpt>
      <trkpt lat="42.946111" lon="0.745490">
        <ele>1197.9</ele>
        <time>2013-04-30T07:35:25Z</time>
      </trkpt>
      <trkpt lat="42.946042" lon="0.745377">
        <ele>1198.9</ele>
        <time>2013-04-30T07:35:34Z</time>
      </trkpt>
      <trkpt lat="42.945966" lon="0.745318">
        <ele>1199.9</ele>
        <time>2013-04-30T07:35:42Z</time>
      </trkpt>
      <trkpt lat="42.945838" lon="0.745319">
        <ele>1200.8</ele>
        <time>2013-04-30T07:35:55Z</time>
      </trkpt>
      <trkpt lat="42.945732" lon="0.745272">
        <ele>1201.8</ele>
        <time>2013-04-30T07:36:06Z</time>
      </trkpt>
      <trkpt lat="42.945624" lon="0.745174">
        <ele>1202.8</ele>
        <time>2013-04-30T07:36:16Z</time>
      </trkpt>
      <trkpt lat="42.945523" lon="0.745101">
        <ele>1202.8</ele>
        <time>2013-04-30T07:36:26Z</time>
      </trkpt>
      <trkpt lat="42.945400" lon="0.745065">
        <ele>1203.2</ele>
        <time>2013-04-30T07:36:37Z</time>
      </trkpt>
      <trkpt lat="42.945298" lon="0.745053">
        <ele>1203.2</ele>
        <time>2013-04-30T07:36:46Z</time>
      </trkpt>
      <trkpt lat="42.945189" lon="0.745053">
        <ele>1203.7</ele>
        <time>2013-04-30T07:36:55Z</time>
      </trkpt>
      <trkpt lat="42.945059" lon="0.745111">
        <ele>1203.7</ele>
        <time>2013-04-30T07:37:08Z</time>
      </trkpt>
      <trkpt lat="42.944945" lon="0.745079">
        <ele>1204.7</ele>
        <time>2013-04-30T07:37:19Z</time>
      </trkpt>
      <trkpt lat="42.944827" lon="0.745013">
        <ele>1204.7</ele>
        <time>2013-04-30T07:37:30Z</time>
      </trkpt>
      <trkpt lat="42.944718" lon="0.744985">
        <ele>1205.6</ele>
        <time>2013-04-30T07:37:39Z</time>
      </trkpt>
      <trkpt lat="42.944598" lon="0.745042">
        <ele>1205.6</ele>
        <time>2013-04-30T07:39:10Z</time>
      </trkpt>
      <trkpt lat="42.944498" lon="0.745072">
        <ele>1206.1</ele>
        <time>2013-04-30T07:39:19Z</time>
      </trkpt>
      <trkpt lat="42.944411" lon="0.745124">
        <ele>1207.1</ele>
        <time>2013-04-30T07:39:30Z</time>
      </trkpt>
      <trkpt lat="42.944305" lon="0.745180">
        <ele>1208.0</ele>
        <time>2013-04-30T07:39:40Z</time>
      </trkpt>
      <trkpt lat="42.944205" lon="0.745222">
        <ele>1208.0</ele>
        <time>2013-04-30T07:39:49Z</time>
      </trkpt>
      <trkpt lat="42.944087" lon="0.745310">
        <ele>1208.5</ele>
        <time>2013-04-30T07:39:59Z</time>
      </trkpt>
      <trkpt lat="42.943982" lon="0.745333">
        <ele>1208.5</ele>
        <time>2013-04-30T07:40:09Z</time>
      </trkpt>
      <trkpt lat="42.943879" lon="0.745393">
        <ele>1209.5</ele>
        <time>2013-04-30T07:40:19Z</time>
      </trkpt>
      <trkpt lat="42.943758" lon="0.745437">
        <ele>1209.5</ele>
        <time>2013-04-30T07:40:30Z</time>
      </trkpt>
      <trkpt lat="42.943649" lon="0.745472">
        <ele>1210.4</ele>
        <time>2013-04-30T07:40:40Z</time>
      </trkpt>
      <trkpt lat="42.943524" lon="0.745470">
        <ele>1210.9</ele>
        <time>2013-04-30T07:40:50Z</time>
      </trkpt>
      <trkpt lat="42.943403" lon="0.745437">
        <ele>1211.4</ele>
        <time>2013-04-30T07:41:03Z</time>
      </trkpt>
      <trkpt lat="42.943286" lon="0.745351">
        <ele>1212.8</ele>
        <time>2013-04-30T07:41:15Z</time>
      </trkpt>
      <trkpt lat="42.943171" lon="0.745292">
        <ele>1213.8</ele>
        <time>2013-04-30T07:41:28Z</time>
      </trkpt>
      <trkpt lat="42.943060" lon="0.745232">
        <ele>1214.3</ele>
        <time>2013-04-30T07:41:38Z</time>
      </trkpt>
      <trkpt lat="42.942948" lon="0.745211">
        <ele>1214.8</ele>
        <time>2013-04-30T07:41:48Z</time>
      </trkpt>
      <trkpt lat="42.942856" lon="0.745149">
        <ele>1215.2</ele>
        <time>2013-04-30T07:41:58Z</time>
      </trkpt>
      <trkpt lat="42.942769" lon="0.745084">
        <ele>1215.7</ele>
        <time>2013-04-30T07:42:08Z</time>
      </trkpt>
      <trkpt lat="42.942631" lon="0.745080">
        <ele>1216.2</ele>
        <time>2013-04-30T07:42:20Z</time>
      </trkpt>
      <trkpt lat="42.942513" lon="0.745129">
        <ele>1217.2</ele>
        <time>2013-04-30T07:42:32Z</time>
      </trkpt>
      <trkpt lat="42.942407" lon="0.745173">
        <ele>1217.2</ele>
        <time>2013-04-30T07:42:44Z</time>
      </trkpt>
      <trkpt lat="42.942278" lon="0.745092">
        <ele>1218.1</ele>
        <time>2013-04-30T07:42:56Z</time>
      </trkpt>
      <trkpt lat="42.942150" lon="0.745083">
        <ele>1218.6</ele>
        <time>2013-04-30T07:43:06Z</time>
      </trkpt>
      <trkpt lat="42.942022" lon="0.745135">
        <ele>1219.1</ele>
        <time>2013-04-30T07:43:21Z</time>
      </trkpt>
      <trkpt lat="42.941905" lon="0.745119">
        <ele>1220.1</ele>
        <time>2013-04-30T07:43:32Z</time>
      </trkpt>
      <trkpt lat="42.941794" lon="0.745035">
        <ele>1220.5</ele>
        <time>2013-04-30T07:43:42Z</time>
      </trkpt>
      <trkpt lat="42.941737" lon="0.744890">
        <ele>1221.0</ele>
        <time>2013-04-30T07:43:53Z</time>
      </trkpt>
      <trkpt lat="42.941714" lon="0.744744">
        <ele>1221.5</ele>
        <time>2013-04-30T07:44:05Z</time>
      </trkpt>
      <trkpt lat="42.941701" lon="0.744479">
        <ele>1221.5</ele>
        <time>2013-04-30T07:44:20Z</time>
      </trkpt>
      <trkpt lat="42.941701" lon="0.744284">
        <ele>1223.4</ele>
        <time>2013-04-30T07:44:36Z</time>
      </trkpt>
      <trkpt lat="42.941713" lon="0.744029">
        <ele>1223.9</ele>
        <time>2013-04-30T07:44:48Z</time>
      </trkpt>
      <trkpt lat="42.941730" lon="0.743859">
        <ele>1224.4</ele>
        <time>2013-04-30T07:45:00Z</time>
      </trkpt>
      <trkpt lat="42.941726" lon="0.743709">
        <ele>1225.8</ele>
        <time>2013-04-30T07:45:13Z</time>
      </trkpt>
      <trkpt lat="42.941664" lon="0.743552">
        <ele>1225.8</ele>
        <time>2013-04-30T07:45:25Z</time>
      </trkpt>
      <trkpt lat="42.941562" lon="0.743499">
        <ele>1225.3</ele>
        <time>2013-04-30T07:45:39Z</time>
      </trkpt>
      <trkpt lat="42.941398" lon="0.743511">
        <ele>1225.3</ele>
        <time>2013-04-30T07:45:52Z</time>
      </trkpt>
      <trkpt lat="42.941249" lon="0.743534">
        <ele>1225.3</ele>
        <time>2013-04-30T07:46:03Z</time>
      </trkpt>
      <trkpt lat="42.941148" lon="0.743585">
        <ele>1225.8</ele>
        <time>2013-04-30T07:46:13Z</time>
      </trkpt>
      <trkpt lat="42.941048" lon="0.743603">
        <ele>1226.3</ele>
        <time>2013-04-30T07:46:31Z</time>
      </trkpt>
      <trkpt lat="42.940987" lon="0.743697">
        <ele>1226.8</ele>
        <time>2013-04-30T07:46:57Z</time>
      </trkpt>
      <trkpt lat="42.940883" lon="0.743736">
        <ele>1226.8</ele>
        <time>2013-04-30T07:47:07Z</time>
      </trkpt>
      <trkpt lat="42.940773" lon="0.743767">
        <ele>1226.8</ele>
        <time>2013-04-30T07:47:18Z</time>
      </trkpt>
      <trkpt lat="42.940667" lon="0.743750">
        <ele>1226.8</ele>
        <time>2013-04-30T07:47:29Z</time>
      </trkpt>
      <trkpt lat="42.940556" lon="0.743712">
        <ele>1227.7</ele>
        <time>2013-04-30T07:47:39Z</time>
      </trkpt>
      <trkpt lat="42.940476" lon="0.743584">
        <ele>1228.7</ele>
        <time>2013-04-30T07:47:50Z</time>
        <name>Bif. cab. Arguenos</name>
      </trkpt>
      <trkpt lat="42.940455" lon="0.743403">
        <ele>1228.7</ele>
        <time>2013-04-30T07:48:03Z</time>
      </trkpt>
      <trkpt lat="42.940434" lon="0.743243">
        <ele>1229.7</ele>
        <time>2013-04-30T07:48:20Z</time>
      </trkpt>
      <trkpt lat="42.940423" lon="0.743200">
        <ele>1229.7</ele>
        <time>2013-04-30T07:50:41Z</time>
      </trkpt>
      <trkpt lat="42.940378" lon="0.743090">
        <ele>1230.1</ele>
        <time>2013-04-30T07:54:45Z</time>
      </trkpt>
      <trkpt lat="42.940354" lon="0.742972">
        <ele>1230.6</ele>
        <time>2013-04-30T07:55:18Z</time>
      </trkpt>
      <trkpt lat="42.940303" lon="0.742857">
        <ele>1230.6</ele>
        <time>2013-04-30T07:55:28Z</time>
      </trkpt>
      <trkpt lat="42.940234" lon="0.742751">
        <ele>1231.6</ele>
        <time>2013-04-30T07:55:38Z</time>
      </trkpt>
      <trkpt lat="42.940164" lon="0.742642">
        <ele>1232.1</ele>
        <time>2013-04-30T07:55:49Z</time>
      </trkpt>
      <trkpt lat="42.940090" lon="0.742522">
        <ele>1232.6</ele>
        <time>2013-04-30T07:55:59Z</time>
      </trkpt>
      <trkpt lat="42.940038" lon="0.742381">
        <ele>1233.0</ele>
        <time>2013-04-30T07:56:10Z</time>
      </trkpt>
      <trkpt lat="42.940041" lon="0.742194">
        <ele>1234.0</ele>
        <time>2013-04-30T07:56:22Z</time>
      </trkpt>
      <trkpt lat="42.940087" lon="0.742061">
        <ele>1234.5</ele>
        <time>2013-04-30T07:56:35Z</time>
      </trkpt>
      <trkpt lat="42.940107" lon="0.742107">
        <ele>1234.9</ele>
        <time>2013-04-30T07:58:12Z</time>
      </trkpt>
      <trkpt lat="42.940213" lon="0.741923">
        <ele>1235.4</ele>
        <time>2013-04-30T07:58:59Z</time>
      </trkpt>
      <trkpt lat="42.940266" lon="0.741763">
        <ele>1236.4</ele>
        <time>2013-04-30T08:00:27Z</time>
      </trkpt>
      <trkpt lat="42.940369" lon="0.741613">
        <ele>1236.9</ele>
        <time>2013-04-30T08:01:03Z</time>
      </trkpt>
      <trkpt lat="42.940390" lon="0.741395">
        <ele>1237.8</ele>
        <time>2013-04-30T08:03:08Z</time>
      </trkpt>
      <trkpt lat="42.940278" lon="0.741376">
        <ele>1238.3</ele>
        <time>2013-04-30T08:03:19Z</time>
      </trkpt>
      <trkpt lat="42.940186" lon="0.741319">
        <ele>1239.3</ele>
        <time>2013-04-30T08:03:30Z</time>
      </trkpt>
      <trkpt lat="42.940094" lon="0.741232">
        <ele>1239.8</ele>
        <time>2013-04-30T08:04:01Z</time>
      </trkpt>
      <trkpt lat="42.940020" lon="0.741105">
        <ele>1240.7</ele>
        <time>2013-04-30T08:04:13Z</time>
      </trkpt>
      <trkpt lat="42.939943" lon="0.740999">
        <ele>1240.7</ele>
        <time>2013-04-30T08:04:24Z</time>
      </trkpt>
      <trkpt lat="42.939861" lon="0.740876">
        <ele>1241.7</ele>
        <time>2013-04-30T08:04:37Z</time>
      </trkpt>
      <trkpt lat="42.939795" lon="0.740727">
        <ele>1242.2</ele>
        <time>2013-04-30T08:04:49Z</time>
      </trkpt>
      <trkpt lat="42.939720" lon="0.740610">
        <ele>1242.6</ele>
        <time>2013-04-30T08:05:00Z</time>
      </trkpt>
      <trkpt lat="42.939627" lon="0.740528">
        <ele>1242.6</ele>
        <time>2013-04-30T08:05:11Z</time>
      </trkpt>
      <trkpt lat="42.939528" lon="0.740421">
        <ele>1243.6</ele>
        <time>2013-04-30T08:05:22Z</time>
      </trkpt>
      <trkpt lat="42.939441" lon="0.740323">
        <ele>1244.1</ele>
        <time>2013-04-30T08:05:35Z</time>
      </trkpt>
      <trkpt lat="42.939378" lon="0.740212">
        <ele>1244.6</ele>
        <time>2013-04-30T08:05:47Z</time>
      </trkpt>
      <trkpt lat="42.939371" lon="0.740043">
        <ele>1245.0</ele>
        <time>2013-04-30T08:05:59Z</time>
      </trkpt>
      <trkpt lat="42.939391" lon="0.739812">
        <ele>1245.5</ele>
        <time>2013-04-30T08:06:13Z</time>
      </trkpt>
      <trkpt lat="42.939431" lon="0.739664">
        <ele>1246.5</ele>
        <time>2013-04-30T08:06:25Z</time>
      </trkpt>
      <trkpt lat="42.939519" lon="0.739556">
        <ele>1246.5</ele>
        <time>2013-04-30T08:06:38Z</time>
      </trkpt>
      <trkpt lat="42.939586" lon="0.739395">
        <ele>1246.5</ele>
        <time>2013-04-30T08:06:53Z</time>
      </trkpt>
      <trkpt lat="42.939541" lon="0.739248">
        <ele>1247.0</ele>
        <time>2013-04-30T08:07:05Z</time>
      </trkpt>
      <trkpt lat="42.939445" lon="0.739126">
        <ele>1247.0</ele>
        <time>2013-04-30T08:07:17Z</time>
      </trkpt>
      <trkpt lat="42.939366" lon="0.739015">
        <ele>1248.4</ele>
        <time>2013-04-30T08:07:28Z</time>
      </trkpt>
      <trkpt lat="42.939345" lon="0.738834">
        <ele>1249.4</ele>
        <time>2013-04-30T08:07:42Z</time>
      </trkpt>
      <trkpt lat="42.939383" lon="0.738691">
        <ele>1250.3</ele>
        <time>2013-04-30T08:07:55Z</time>
      </trkpt>
      <trkpt lat="42.939430" lon="0.738554">
        <ele>1250.3</ele>
        <time>2013-04-30T08:08:06Z</time>
      </trkpt>
      <trkpt lat="42.939473" lon="0.738412">
        <ele>1250.8</ele>
        <time>2013-04-30T08:08:17Z</time>
      </trkpt>
      <trkpt lat="42.939550" lon="0.738318">
        <ele>1251.3</ele>
        <time>2013-04-30T08:08:27Z</time>
      </trkpt>
      <trkpt lat="42.939621" lon="0.738215">
        <ele>1251.8</ele>
        <time>2013-04-30T08:08:38Z</time>
      </trkpt>
      <trkpt lat="42.939686" lon="0.738085">
        <ele>1252.2</ele>
        <time>2013-04-30T08:08:49Z</time>
      </trkpt>
      <trkpt lat="42.939769" lon="0.737928">
        <ele>1252.2</ele>
        <time>2013-04-30T08:09:02Z</time>
      </trkpt>
      <trkpt lat="42.939782" lon="0.737736">
        <ele>1252.7</ele>
        <time>2013-04-30T08:09:16Z</time>
      </trkpt>
      <trkpt lat="42.939768" lon="0.737574">
        <ele>1252.7</ele>
        <time>2013-04-30T08:09:29Z</time>
      </trkpt>
      <trkpt lat="42.939784" lon="0.737417">
        <ele>1253.7</ele>
        <time>2013-04-30T08:09:50Z</time>
      </trkpt>
      <trkpt lat="42.939850" lon="0.737286">
        <ele>1255.1</ele>
        <time>2013-04-30T08:10:02Z</time>
      </trkpt>
      <trkpt lat="42.939904" lon="0.737138">
        <ele>1255.1</ele>
        <time>2013-04-30T08:10:18Z</time>
      </trkpt>
      <trkpt lat="42.939937" lon="0.736972">
        <ele>1255.6</ele>
        <time>2013-04-30T08:10:32Z</time>
      </trkpt>
      <trkpt lat="42.939991" lon="0.736807">
        <ele>1256.6</ele>
        <time>2013-04-30T08:10:46Z</time>
      </trkpt>
      <trkpt lat="42.940013" lon="0.736636">
        <ele>1257.1</ele>
        <time>2013-04-30T08:11:01Z</time>
      </trkpt>
      <trkpt lat="42.940016" lon="0.736466">
        <ele>1257.5</ele>
        <time>2013-04-30T08:11:16Z</time>
      </trkpt>
      <trkpt lat="42.940051" lon="0.736305">
        <ele>1259.0</ele>
        <time>2013-04-30T08:11:30Z</time>
      </trkpt>
      <trkpt lat="42.940082" lon="0.736148">
        <ele>1259.5</ele>
        <time>2013-04-30T08:11:44Z</time>
      </trkpt>
      <trkpt lat="42.940114" lon="0.735994">
        <ele>1260.9</ele>
        <time>2013-04-30T08:11:57Z</time>
      </trkpt>
      <trkpt lat="42.940160" lon="0.735868">
        <ele>1261.4</ele>
        <time>2013-04-30T08:12:10Z</time>
      </trkpt>
      <trkpt lat="42.940215" lon="0.735737">
        <ele>1261.9</ele>
        <time>2013-04-30T08:12:23Z</time>
      </trkpt>
      <trkpt lat="42.940293" lon="0.735620">
        <ele>1262.8</ele>
        <time>2013-04-30T08:12:36Z</time>
      </trkpt>
      <trkpt lat="42.940378" lon="0.735507">
        <ele>1263.8</ele>
        <time>2013-04-30T08:12:48Z</time>
      </trkpt>
      <trkpt lat="42.940419" lon="0.735354">
        <ele>1264.8</ele>
        <time>2013-04-30T08:13:02Z</time>
      </trkpt>
      <trkpt lat="42.940342" lon="0.735187">
        <ele>1265.7</ele>
        <time>2013-04-30T08:13:16Z</time>
      </trkpt>
      <trkpt lat="42.940327" lon="0.735046">
        <ele>1266.7</ele>
        <time>2013-04-30T08:13:29Z</time>
      </trkpt>
      <trkpt lat="42.940367" lon="0.734904">
        <ele>1267.2</ele>
        <time>2013-04-30T08:13:42Z</time>
      </trkpt>
      <trkpt lat="42.940407" lon="0.734781">
        <ele>1267.6</ele>
        <time>2013-04-30T08:14:28Z</time>
      </trkpt>
      <trkpt lat="42.940446" lon="0.734630">
        <ele>1268.1</ele>
        <time>2013-04-30T08:14:39Z</time>
      </trkpt>
      <trkpt lat="42.940482" lon="0.734507">
        <ele>1269.1</ele>
        <time>2013-04-30T08:14:49Z</time>
      </trkpt>
      <trkpt lat="42.940531" lon="0.734368">
        <ele>1269.6</ele>
        <time>2013-04-30T08:15:00Z</time>
      </trkpt>
      <trkpt lat="42.940560" lon="0.734226">
        <ele>1270.5</ele>
        <time>2013-04-30T08:15:13Z</time>
      </trkpt>
      <trkpt lat="42.940580" lon="0.734075">
        <ele>1271.5</ele>
        <time>2013-04-30T08:15:26Z</time>
      </trkpt>
      <trkpt lat="42.940604" lon="0.733918">
        <ele>1272.0</ele>
        <time>2013-04-30T08:15:39Z</time>
      </trkpt>
      <trkpt lat="42.940616" lon="0.733767">
        <ele>1272.4</ele>
        <time>2013-04-30T08:15:51Z</time>
      </trkpt>
      <trkpt lat="42.940619" lon="0.733613">
        <ele>1272.9</ele>
        <time>2013-04-30T08:16:03Z</time>
      </trkpt>
      <trkpt lat="42.940587" lon="0.733508">
        <ele>1273.4</ele>
        <time>2013-04-30T08:16:49Z</time>
      </trkpt>
      <trkpt lat="42.940581" lon="0.733389">
        <ele>1273.9</ele>
        <time>2013-04-30T08:16:59Z</time>
      </trkpt>
      <trkpt lat="42.940527" lon="0.733288">
        <ele>1273.4</ele>
        <time>2013-04-30T08:17:12Z</time>
      </trkpt>
      <trkpt lat="42.940448" lon="0.733243">
        <ele>1273.4</ele>
        <time>2013-04-30T08:17:22Z</time>
      </trkpt>
      <trkpt lat="42.940341" lon="0.733240">
        <ele>1273.9</ele>
        <time>2013-04-30T08:17:34Z</time>
      </trkpt>
      <trkpt lat="42.940222" lon="0.733261">
        <ele>1275.3</ele>
        <time>2013-04-30T08:17:47Z</time>
      </trkpt>
      <trkpt lat="42.940100" lon="0.733291">
        <ele>1275.3</ele>
        <time>2013-04-30T08:18:00Z</time>
      </trkpt>
      <trkpt lat="42.939991" lon="0.733307">
        <ele>1276.3</ele>
        <time>2013-04-30T08:18:13Z</time>
      </trkpt>
      <trkpt lat="42.939841" lon="0.733334">
        <ele>1276.8</ele>
        <time>2013-04-30T08:18:28Z</time>
      </trkpt>
      <trkpt lat="42.939685" lon="0.733326">
        <ele>1277.7</ele>
        <time>2013-04-30T08:18:44Z</time>
      </trkpt>
      <trkpt lat="42.939549" lon="0.733341">
        <ele>1277.7</ele>
        <time>2013-04-30T08:18:58Z</time>
      </trkpt>
      <trkpt lat="42.939404" lon="0.733360">
        <ele>1278.2</ele>
        <time>2013-04-30T08:19:13Z</time>
      </trkpt>
      <trkpt lat="42.939287" lon="0.733410">
        <ele>1279.2</ele>
        <time>2013-04-30T08:19:29Z</time>
      </trkpt>
      <trkpt lat="42.939152" lon="0.733424">
        <ele>1279.7</ele>
        <time>2013-04-30T08:19:45Z</time>
      </trkpt>
      <trkpt lat="42.939020" lon="0.733402">
        <ele>1280.6</ele>
        <time>2013-04-30T08:20:00Z</time>
      </trkpt>
      <trkpt lat="42.938879" lon="0.733359">
        <ele>1280.6</ele>
        <time>2013-04-30T08:20:15Z</time>
      </trkpt>
      <trkpt lat="42.938750" lon="0.733335">
        <ele>1280.6</ele>
        <time>2013-04-30T08:20:32Z</time>
      </trkpt>
      <trkpt lat="42.938614" lon="0.733249">
        <ele>1280.6</ele>
        <time>2013-04-30T08:20:45Z</time>
      </trkpt>
      <trkpt lat="42.938565" lon="0.733103">
        <ele>1281.6</ele>
        <time>2013-04-30T08:20:57Z</time>
      </trkpt>
      <trkpt lat="42.938561" lon="0.732929">
        <ele>1282.1</ele>
        <time>2013-04-30T08:21:07Z</time>
      </trkpt>
      <trkpt lat="42.938597" lon="0.732782">
        <ele>1281.6</ele>
        <time>2013-04-30T08:21:18Z</time>
      </trkpt>
      <trkpt lat="42.938611" lon="0.732618">
        <ele>1282.1</ele>
        <time>2013-04-30T08:21:30Z</time>
      </trkpt>
      <trkpt lat="42.938636" lon="0.732469">
        <ele>1282.5</ele>
        <time>2013-04-30T08:21:45Z</time>
      </trkpt>
      <trkpt lat="42.938647" lon="0.732320">
        <ele>1283.5</ele>
        <time>2013-04-30T08:22:03Z</time>
      </trkpt>
      <trkpt lat="42.938673" lon="0.732178">
        <ele>1283.5</ele>
        <time>2013-04-30T08:22:16Z</time>
      </trkpt>
      <trkpt lat="42.938682" lon="0.732033">
        <ele>1283.5</ele>
        <time>2013-04-30T08:22:28Z</time>
      </trkpt>
      <trkpt lat="42.938718" lon="0.731869">
        <ele>1284.0</ele>
        <time>2013-04-30T08:22:42Z</time>
      </trkpt>
      <trkpt lat="42.938789" lon="0.731742">
        <ele>1284.5</ele>
        <time>2013-04-30T08:22:54Z</time>
      </trkpt>
      <trkpt lat="42.938895" lon="0.731663">
        <ele>1285.4</ele>
        <time>2013-04-30T08:23:07Z</time>
      </trkpt>
      <trkpt lat="42.938987" lon="0.731557">
        <ele>1285.9</ele>
        <time>2013-04-30T08:23:21Z</time>
      </trkpt>
      <trkpt lat="42.939038" lon="0.731416">
        <ele>1285.9</ele>
        <time>2013-04-30T08:23:35Z</time>
      </trkpt>
      <trkpt lat="42.939049" lon="0.731220">
        <ele>1287.3</ele>
        <time>2013-04-30T08:23:54Z</time>
      </trkpt>
      <trkpt lat="42.938995" lon="0.731072">
        <ele>1287.3</ele>
        <time>2013-04-30T08:24:08Z</time>
      </trkpt>
      <trkpt lat="42.938927" lon="0.730965">
        <ele>1288.3</ele>
        <time>2013-04-30T08:24:23Z</time>
      </trkpt>
      <trkpt lat="42.938846" lon="0.730892">
        <ele>1288.8</ele>
        <time>2013-04-30T08:24:37Z</time>
      </trkpt>
      <trkpt lat="42.938773" lon="0.730747">
        <ele>1289.3</ele>
        <time>2013-04-30T08:24:51Z</time>
      </trkpt>
      <trkpt lat="42.938683" lon="0.730654">
        <ele>1289.3</ele>
        <time>2013-04-30T08:25:04Z</time>
      </trkpt>
      <trkpt lat="42.938607" lon="0.730534">
        <ele>1289.8</ele>
        <time>2013-04-30T08:25:18Z</time>
      </trkpt>
      <trkpt lat="42.938569" lon="0.730378">
        <ele>1290.2</ele>
        <time>2013-04-30T08:25:33Z</time>
      </trkpt>
      <trkpt lat="42.938546" lon="0.730184">
        <ele>1290.7</ele>
        <time>2013-04-30T08:25:47Z</time>
      </trkpt>
      <trkpt lat="42.938573" lon="0.730000">
        <ele>1291.2</ele>
        <time>2013-04-30T08:26:00Z</time>
      </trkpt>
      <trkpt lat="42.938600" lon="0.729867">
        <ele>1291.2</ele>
        <time>2013-04-30T08:26:12Z</time>
      </trkpt>
      <trkpt lat="42.938645" lon="0.729708">
        <ele>1291.7</ele>
        <time>2013-04-30T08:26:26Z</time>
      </trkpt>
      <trkpt lat="42.938721" lon="0.729603">
        <ele>1292.2</ele>
        <time>2013-04-30T08:26:38Z</time>
      </trkpt>
      <trkpt lat="42.938817" lon="0.729508">
        <ele>1292.6</ele>
        <time>2013-04-30T08:26:53Z</time>
      </trkpt>
      <trkpt lat="42.938907" lon="0.729451">
        <ele>1293.6</ele>
        <time>2013-04-30T08:27:05Z</time>
      </trkpt>
      <trkpt lat="42.939031" lon="0.729421">
        <ele>1294.1</ele>
        <time>2013-04-30T08:27:17Z</time>
      </trkpt>
      <trkpt lat="42.939145" lon="0.729422">
        <ele>1294.6</ele>
        <time>2013-04-30T08:27:29Z</time>
      </trkpt>
      <trkpt lat="42.939258" lon="0.729435">
        <ele>1295.0</ele>
        <time>2013-04-30T08:27:42Z</time>
      </trkpt>
      <trkpt lat="42.939386" lon="0.729501">
        <ele>1295.5</ele>
        <time>2013-04-30T08:27:54Z</time>
      </trkpt>
      <trkpt lat="42.939514" lon="0.729589">
        <ele>1296.0</ele>
        <time>2013-04-30T08:28:06Z</time>
      </trkpt>
      <trkpt lat="42.939614" lon="0.729677">
        <ele>1296.5</ele>
        <time>2013-04-30T08:28:18Z</time>
      </trkpt>
      <trkpt lat="42.939718" lon="0.729737">
        <ele>1297.9</ele>
        <time>2013-04-30T08:28:31Z</time>
      </trkpt>
      <trkpt lat="42.939842" lon="0.729710">
        <ele>1298.4</ele>
        <time>2013-04-30T08:28:44Z</time>
      </trkpt>
      <trkpt lat="42.939948" lon="0.729688">
        <ele>1299.4</ele>
        <time>2013-04-30T08:28:55Z</time>
      </trkpt>
      <trkpt lat="42.940059" lon="0.729613">
        <ele>1299.4</ele>
        <time>2013-04-30T08:29:06Z</time>
      </trkpt>
      <trkpt lat="42.940149" lon="0.729544">
        <ele>1299.8</ele>
        <time>2013-04-30T08:29:16Z</time>
      </trkpt>
      <trkpt lat="42.940243" lon="0.729481">
        <ele>1300.8</ele>
        <time>2013-04-30T08:29:28Z</time>
      </trkpt>
      <trkpt lat="42.940360" lon="0.729379">
        <ele>1301.3</ele>
        <time>2013-04-30T08:29:41Z</time>
      </trkpt>
      <trkpt lat="42.940457" lon="0.729269">
        <ele>1301.3</ele>
        <time>2013-04-30T08:29:53Z</time>
      </trkpt>
      <trkpt lat="42.940542" lon="0.729177">
        <ele>1301.8</ele>
        <time>2013-04-30T08:30:05Z</time>
      </trkpt>
      <trkpt lat="42.940630" lon="0.729100">
        <ele>1302.7</ele>
        <time>2013-04-30T08:30:16Z</time>
      </trkpt>
      <trkpt lat="42.940720" lon="0.729007">
        <ele>1303.2</ele>
        <time>2013-04-30T08:30:26Z</time>
      </trkpt>
      <trkpt lat="42.940803" lon="0.728907">
        <ele>1303.7</ele>
        <time>2013-04-30T08:30:36Z</time>
      </trkpt>
      <trkpt lat="42.940883" lon="0.728823">
        <ele>1303.7</ele>
        <time>2013-04-30T08:30:46Z</time>
      </trkpt>
      <trkpt lat="42.940945" lon="0.728713">
        <ele>1303.7</ele>
        <time>2013-04-30T08:30:56Z</time>
      </trkpt>
      <trkpt lat="42.941004" lon="0.728591">
        <ele>1304.7</ele>
        <time>2013-04-30T08:31:06Z</time>
      </trkpt>
      <trkpt lat="42.941068" lon="0.728443">
        <ele>1305.6</ele>
        <time>2013-04-30T08:31:19Z</time>
      </trkpt>
      <trkpt lat="42.941111" lon="0.728310">
        <ele>1305.6</ele>
        <time>2013-04-30T08:31:31Z</time>
      </trkpt>
      <trkpt lat="42.941175" lon="0.728175">
        <ele>1306.6</ele>
        <time>2013-04-30T08:31:42Z</time>
      </trkpt>
      <trkpt lat="42.941239" lon="0.728041">
        <ele>1306.6</ele>
        <time>2013-04-30T08:31:54Z</time>
      </trkpt>
      <trkpt lat="42.941285" lon="0.727892">
        <ele>1307.1</ele>
        <time>2013-04-30T08:32:06Z</time>
      </trkpt>
      <trkpt lat="42.941313" lon="0.727750">
        <ele>1307.5</ele>
        <time>2013-04-30T08:32:19Z</time>
      </trkpt>
      <trkpt lat="42.941372" lon="0.727620">
        <ele>1309.0</ele>
        <time>2013-04-30T08:32:31Z</time>
      </trkpt>
      <trkpt lat="42.941438" lon="0.727519">
        <ele>1308.5</ele>
        <time>2013-04-30T08:32:43Z</time>
      </trkpt>
      <trkpt lat="42.941527" lon="0.727449">
        <ele>1309.4</ele>
        <time>2013-04-30T08:32:53Z</time>
      </trkpt>
      <trkpt lat="42.941628" lon="0.727383">
        <ele>1309.9</ele>
        <time>2013-04-30T08:33:05Z</time>
      </trkpt>
      <trkpt lat="42.941724" lon="0.727253">
        <ele>1309.9</ele>
        <time>2013-04-30T08:33:17Z</time>
      </trkpt>
      <trkpt lat="42.941781" lon="0.727125">
        <ele>1310.4</ele>
        <time>2013-04-30T08:33:29Z</time>
      </trkpt>
      <trkpt lat="42.941851" lon="0.726968">
        <ele>1310.9</ele>
        <time>2013-04-30T08:33:42Z</time>
      </trkpt>
      <trkpt lat="42.941912" lon="0.726807">
        <ele>1310.9</ele>
        <time>2013-04-30T08:33:55Z</time>
      </trkpt>
      <trkpt lat="42.941962" lon="0.726666">
        <ele>1311.9</ele>
        <time>2013-04-30T08:34:07Z</time>
      </trkpt>
      <trkpt lat="42.942030" lon="0.726561">
        <ele>1312.3</ele>
        <time>2013-04-30T08:34:18Z</time>
      </trkpt>
      <trkpt lat="42.942126" lon="0.726455">
        <ele>1312.8</ele>
        <time>2013-04-30T08:34:30Z</time>
      </trkpt>
      <trkpt lat="42.942201" lon="0.726325">
        <ele>1312.8</ele>
        <time>2013-04-30T08:34:42Z</time>
      </trkpt>
      <trkpt lat="42.942268" lon="0.726176">
        <ele>1313.3</ele>
        <time>2013-04-30T08:34:55Z</time>
      </trkpt>
      <trkpt lat="42.942322" lon="0.726022">
        <ele>1313.3</ele>
        <time>2013-04-30T08:35:07Z</time>
      </trkpt>
      <trkpt lat="42.942355" lon="0.725839">
        <ele>1313.8</ele>
        <time>2013-04-30T08:35:21Z</time>
      </trkpt>
      <trkpt lat="42.942358" lon="0.725700">
        <ele>1314.7</ele>
        <time>2013-04-30T08:35:45Z</time>
      </trkpt>
      <trkpt lat="42.942334" lon="0.725532">
        <ele>1315.7</ele>
        <time>2013-04-30T08:35:59Z</time>
      </trkpt>
      <trkpt lat="42.942336" lon="0.725313">
        <ele>1315.2</ele>
        <time>2013-04-30T08:36:43Z</time>
      </trkpt>
      <trkpt lat="42.942412" lon="0.725248">
        <ele>1315.7</ele>
        <time>2013-04-30T08:37:12Z</time>
      </trkpt>
      <trkpt lat="42.942458" lon="0.725087">
        <ele>1316.2</ele>
        <time>2013-04-30T08:37:24Z</time>
      </trkpt>
      <trkpt lat="42.942448" lon="0.724909">
        <ele>1316.7</ele>
        <time>2013-04-30T08:37:36Z</time>
      </trkpt>
      <trkpt lat="42.942434" lon="0.724754">
        <ele>1317.1</ele>
        <time>2013-04-30T08:37:47Z</time>
      </trkpt>
      <trkpt lat="42.942441" lon="0.724582">
        <ele>1318.1</ele>
        <time>2013-04-30T08:37:59Z</time>
      </trkpt>
      <trkpt lat="42.942408" lon="0.724419">
        <ele>1318.1</ele>
        <time>2013-04-30T08:38:10Z</time>
      </trkpt>
      <trkpt lat="42.942331" lon="0.724332">
        <ele>1319.6</ele>
        <time>2013-04-30T08:38:20Z</time>
      </trkpt>
      <trkpt lat="42.942216" lon="0.724321">
        <ele>1319.6</ele>
        <time>2013-04-30T08:38:30Z</time>
      </trkpt>
      <trkpt lat="42.942105" lon="0.724349">
        <ele>1320.5</ele>
        <time>2013-04-30T08:38:40Z</time>
      </trkpt>
      <trkpt lat="42.941989" lon="0.724358">
        <ele>1321.0</ele>
        <time>2013-04-30T08:38:52Z</time>
      </trkpt>
      <trkpt lat="42.941897" lon="0.724284">
        <ele>1321.9</ele>
        <time>2013-04-30T08:39:01Z</time>
      </trkpt>
      <trkpt lat="42.941823" lon="0.724154">
        <ele>1322.4</ele>
        <time>2013-04-30T08:39:11Z</time>
      </trkpt>
      <trkpt lat="42.941740" lon="0.724004">
        <ele>1323.4</ele>
        <time>2013-04-30T08:39:22Z</time>
      </trkpt>
      <trkpt lat="42.941670" lon="0.723917">
        <ele>1323.9</ele>
        <time>2013-04-30T08:39:31Z</time>
      </trkpt>
      <trkpt lat="42.941581" lon="0.723844">
        <ele>1323.9</ele>
        <time>2013-04-30T08:39:41Z</time>
      </trkpt>
      <trkpt lat="42.941467" lon="0.723859">
        <ele>1321.9</ele>
        <time>2013-04-30T08:39:52Z</time>
      </trkpt>
      <trkpt lat="42.941374" lon="0.723880">
        <ele>1323.4</ele>
        <time>2013-04-30T08:40:03Z</time>
      </trkpt>
      <trkpt lat="42.941240" lon="0.723877">
        <ele>1323.9</ele>
        <time>2013-04-30T08:40:15Z</time>
      </trkpt>
      <trkpt lat="42.941134" lon="0.723849">
        <ele>1324.8</ele>
        <time>2013-04-30T08:40:30Z</time>
      </trkpt>
      <trkpt lat="42.941026" lon="0.723804">
        <ele>1326.8</ele>
        <time>2013-04-30T08:40:48Z</time>
      </trkpt>
      <trkpt lat="42.940936" lon="0.723730">
        <ele>1328.7</ele>
        <time>2013-04-30T08:41:05Z</time>
      </trkpt>
      <trkpt lat="42.940849" lon="0.723652">
        <ele>1329.6</ele>
        <time>2013-04-30T08:41:22Z</time>
      </trkpt>
      <trkpt lat="42.940730" lon="0.723548">
        <ele>1329.6</ele>
        <time>2013-04-30T08:41:35Z</time>
      </trkpt>
      <trkpt lat="42.940646" lon="0.723398">
        <ele>1329.6</ele>
        <time>2013-04-30T08:41:49Z</time>
      </trkpt>
      <trkpt lat="42.940569" lon="0.723276">
        <ele>1330.6</ele>
        <time>2013-04-30T08:42:03Z</time>
      </trkpt>
      <trkpt lat="42.940491" lon="0.723176">
        <ele>1332.0</ele>
        <time>2013-04-30T08:42:21Z</time>
      </trkpt>
      <trkpt lat="42.940426" lon="0.723068">
        <ele>1334.4</ele>
        <time>2013-04-30T08:42:40Z</time>
      </trkpt>
      <trkpt lat="42.940360" lon="0.722921">
        <ele>1336.8</ele>
        <time>2013-04-30T08:43:02Z</time>
      </trkpt>
      <trkpt lat="42.940290" lon="0.722791">
        <ele>1338.8</ele>
        <time>2013-04-30T08:43:25Z</time>
      </trkpt>
      <trkpt lat="42.940201" lon="0.722646">
        <ele>1341.7</ele>
        <time>2013-04-30T08:43:46Z</time>
      </trkpt>
      <trkpt lat="42.940110" lon="0.722567">
        <ele>1342.1</ele>
        <time>2013-04-30T08:44:02Z</time>
      </trkpt>
      <trkpt lat="42.940025" lon="0.722455">
        <ele>1344.1</ele>
        <time>2013-04-30T08:44:25Z</time>
      </trkpt>
      <trkpt lat="42.939929" lon="0.722374">
        <ele>1346.9</ele>
        <time>2013-04-30T08:44:41Z</time>
      </trkpt>
      <trkpt lat="42.939843" lon="0.722320">
        <ele>1348.9</ele>
        <time>2013-04-30T08:44:59Z</time>
      </trkpt>
      <trkpt lat="42.939791" lon="0.722238">
        <ele>1350.3</ele>
        <time>2013-04-30T08:45:19Z</time>
      </trkpt>
      <trkpt lat="42.939797" lon="0.722128">
        <ele>1351.3</ele>
        <time>2013-04-30T08:46:20Z</time>
      </trkpt>
      <trkpt lat="42.939806" lon="0.722200">
        <ele>1350.8</ele>
        <time>2013-04-30T08:48:30Z</time>
      </trkpt>
      <trkpt lat="42.939763" lon="0.722347">
        <ele>1352.2</ele>
        <time>2013-04-30T08:48:52Z</time>
      </trkpt>
      <trkpt lat="42.939704" lon="0.722464">
        <ele>1354.6</ele>
        <time>2013-04-30T08:49:44Z</time>
      </trkpt>
      <trkpt lat="42.939663" lon="0.722533">
        <ele>1358.5</ele>
        <time>2013-04-30T08:50:09Z</time>
        <name>Cab. du col de Caube</name>
      </trkpt>
      <trkpt lat="42.939620" lon="0.722542">
        <ele>1357.0</ele>
        <time>2013-04-30T08:55:14Z</time>
      </trkpt>
      <trkpt lat="42.939523" lon="0.722621">
        <ele>1360.4</ele>
        <time>2013-04-30T08:55:30Z</time>
      </trkpt>
      <trkpt lat="42.939422" lon="0.722714">
        <ele>1362.3</ele>
        <time>2013-04-30T08:55:45Z</time>
      </trkpt>
      <trkpt lat="42.939329" lon="0.722797">
        <ele>1364.7</ele>
        <time>2013-04-30T08:55:58Z</time>
      </trkpt>
      <trkpt lat="42.939258" lon="0.722951">
        <ele>1368.1</ele>
        <time>2013-04-30T08:56:18Z</time>
      </trkpt>
      <trkpt lat="42.939155" lon="0.723105">
        <ele>1371.9</ele>
        <time>2013-04-30T08:56:42Z</time>
      </trkpt>
      <trkpt lat="42.939045" lon="0.723292">
        <ele>1374.8</ele>
        <time>2013-04-30T08:57:04Z</time>
      </trkpt>
      <trkpt lat="42.939026" lon="0.723429">
        <ele>1377.2</ele>
        <time>2013-04-30T08:57:20Z</time>
      </trkpt>
      <trkpt lat="42.938935" lon="0.723569">
        <ele>1380.6</ele>
        <time>2013-04-30T08:57:44Z</time>
      </trkpt>
      <trkpt lat="42.938841" lon="0.723674">
        <ele>1384.9</ele>
        <time>2013-04-30T08:58:08Z</time>
      </trkpt>
      <trkpt lat="42.938707" lon="0.723776">
        <ele>1388.3</ele>
        <time>2013-04-30T08:58:28Z</time>
      </trkpt>
      <trkpt lat="42.938586" lon="0.723767">
        <ele>1390.7</ele>
        <time>2013-04-30T08:58:46Z</time>
      </trkpt>
      <trkpt lat="42.938430" lon="0.723712">
        <ele>1393.6</ele>
        <time>2013-04-30T08:59:08Z</time>
      </trkpt>
      <trkpt lat="42.938299" lon="0.723682">
        <ele>1397.4</ele>
        <time>2013-04-30T08:59:32Z</time>
      </trkpt>
      <trkpt lat="42.938139" lon="0.723685">
        <ele>1399.8</ele>
        <time>2013-04-30T08:59:56Z</time>
      </trkpt>
      <trkpt lat="42.938005" lon="0.723661">
        <ele>1401.7</ele>
        <time>2013-04-30T09:00:13Z</time>
      </trkpt>
      <trkpt lat="42.937891" lon="0.723885">
        <ele>1399.8</ele>
        <time>2013-04-30T09:00:42Z</time>
      </trkpt>
      <trkpt lat="42.937779" lon="0.724044">
        <ele>1397.9</ele>
        <time>2013-04-30T09:01:01Z</time>
      </trkpt>
      <trkpt lat="42.937612" lon="0.724199">
        <ele>1397.4</ele>
        <time>2013-04-30T09:01:18Z</time>
      </trkpt>
      <trkpt lat="42.937394" lon="0.724278">
        <ele>1396.9</ele>
        <time>2013-04-30T09:01:32Z</time>
      </trkpt>
      <trkpt lat="42.937214" lon="0.724281">
        <ele>1398.4</ele>
        <time>2013-04-30T09:01:45Z</time>
      </trkpt>
      <trkpt lat="42.937130" lon="0.724197">
        <ele>1398.9</ele>
        <time>2013-04-30T09:02:00Z</time>
      </trkpt>
      <trkpt lat="42.937023" lon="0.724149">
        <ele>1400.3</ele>
        <time>2013-04-30T09:02:14Z</time>
      </trkpt>
      <trkpt lat="42.936911" lon="0.724067">
        <ele>1399.8</ele>
        <time>2013-04-30T09:02:28Z</time>
      </trkpt>
      <trkpt lat="42.936765" lon="0.723967">
        <ele>1399.3</ele>
        <time>2013-04-30T09:02:41Z</time>
      </trkpt>
      <trkpt lat="42.936635" lon="0.723887">
        <ele>1396.4</ele>
        <time>2013-04-30T09:02:56Z</time>
      </trkpt>
      <trkpt lat="42.936458" lon="0.723904">
        <ele>1394.5</ele>
        <time>2013-04-30T09:03:10Z</time>
      </trkpt>
      <trkpt lat="42.936260" lon="0.724045">
        <ele>1394.5</ele>
        <time>2013-04-30T09:03:30Z</time>
      </trkpt>
      <trkpt lat="42.936094" lon="0.724163">
        <ele>1391.7</ele>
        <time>2013-04-30T09:03:43Z</time>
      </trkpt>
      <trkpt lat="42.936012" lon="0.724322">
        <ele>1391.2</ele>
        <time>2013-04-30T09:04:11Z</time>
      </trkpt>
      <trkpt lat="42.936039" lon="0.724464">
        <ele>1393.6</ele>
        <time>2013-04-30T09:04:38Z</time>
      </trkpt>
      <trkpt lat="42.936193" lon="0.724557">
        <ele>1398.9</ele>
        <time>2013-04-30T09:05:02Z</time>
      </trkpt>
      <trkpt lat="42.936215" lon="0.724764">
        <ele>1404.1</ele>
        <time>2013-04-30T09:05:27Z</time>
      </trkpt>
      <trkpt lat="42.936119" lon="0.724926">
        <ele>1404.6</ele>
        <time>2013-04-30T09:06:06Z</time>
      </trkpt>
      <trkpt lat="42.935948" lon="0.724952">
        <ele>1406.6</ele>
        <time>2013-04-30T09:06:27Z</time>
      </trkpt>
      <trkpt lat="42.935785" lon="0.725185">
        <ele>1406.6</ele>
        <time>2013-04-30T09:06:58Z</time>
      </trkpt>
      <trkpt lat="42.935641" lon="0.725412">
        <ele>1411.3</ele>
        <time>2013-04-30T09:07:32Z</time>
      </trkpt>
      <trkpt lat="42.935513" lon="0.725532">
        <ele>1416.6</ele>
        <time>2013-04-30T09:08:07Z</time>
      </trkpt>
      <trkpt lat="42.935439" lon="0.725634">
        <ele>1421.0</ele>
        <time>2013-04-30T09:08:40Z</time>
      </trkpt>
      <trkpt lat="42.935367" lon="0.725774">
        <ele>1426.2</ele>
        <time>2013-04-30T09:09:23Z</time>
      </trkpt>
      <trkpt lat="42.935330" lon="0.726008">
        <ele>1433.0</ele>
        <time>2013-04-30T09:10:17Z</time>
      </trkpt>
      <trkpt lat="42.935395" lon="0.726082">
        <ele>1437.3</ele>
        <time>2013-04-30T09:10:56Z</time>
      </trkpt>
      <trkpt lat="42.935357" lon="0.726319">
        <ele>1445.0</ele>
        <time>2013-04-30T09:11:51Z</time>
      </trkpt>
      <trkpt lat="42.935362" lon="0.726462">
        <ele>1449.3</ele>
        <time>2013-04-30T09:12:19Z</time>
      </trkpt>
      <trkpt lat="42.935317" lon="0.726683">
        <ele>1457.5</ele>
        <time>2013-04-30T09:13:05Z</time>
      </trkpt>
      <trkpt lat="42.935293" lon="0.726864">
        <ele>1464.2</ele>
        <time>2013-04-30T09:13:47Z</time>
      </trkpt>
      <trkpt lat="42.935222" lon="0.727187">
        <ele>1469.0</ele>
        <time>2013-04-30T09:14:31Z</time>
      </trkpt>
      <trkpt lat="42.935115" lon="0.727339">
        <ele>1471.9</ele>
        <time>2013-04-30T09:15:30Z</time>
      </trkpt>
      <trkpt lat="42.935024" lon="0.727507">
        <ele>1471.9</ele>
        <time>2013-04-30T09:15:56Z</time>
      </trkpt>
      <trkpt lat="42.934919" lon="0.727605">
        <ele>1472.9</ele>
        <time>2013-04-30T09:16:22Z</time>
      </trkpt>
      <trkpt lat="42.934782" lon="0.727815">
        <ele>1478.2</ele>
        <time>2013-04-30T09:17:00Z</time>
      </trkpt>
      <trkpt lat="42.934691" lon="0.728166">
        <ele>1479.1</ele>
        <time>2013-04-30T09:17:42Z</time>
      </trkpt>
      <trkpt lat="42.934552" lon="0.728358">
        <ele>1481.5</ele>
        <time>2013-04-30T09:18:10Z</time>
      </trkpt>
      <trkpt lat="42.934403" lon="0.728444">
        <ele>1479.6</ele>
        <time>2013-04-30T09:18:35Z</time>
      </trkpt>
      <trkpt lat="42.934257" lon="0.728512">
        <ele>1478.7</ele>
        <time>2013-04-30T09:18:55Z</time>
      </trkpt>
      <trkpt lat="42.934107" lon="0.728645">
        <ele>1476.2</ele>
        <time>2013-04-30T09:19:17Z</time>
      </trkpt>
      <trkpt lat="42.933991" lon="0.728580">
        <ele>1474.3</ele>
        <time>2013-04-30T09:20:03Z</time>
      </trkpt>
      <trkpt lat="42.933928" lon="0.728697">
        <ele>1472.9</ele>
        <time>2013-04-30T09:20:51Z</time>
      </trkpt>
      <trkpt lat="42.933786" lon="0.728741">
        <ele>1474.3</ele>
        <time>2013-04-30T09:21:38Z</time>
      </trkpt>
      <trkpt lat="42.933679" lon="0.728766">
        <ele>1475.3</ele>
        <time>2013-04-30T09:21:54Z</time>
      </trkpt>
      <trkpt lat="42.933583" lon="0.728841">
        <ele>1477.2</ele>
        <time>2013-04-30T09:22:16Z</time>
      </trkpt>
      <trkpt lat="42.933498" lon="0.728854">
        <ele>1477.7</ele>
        <time>2013-04-30T09:23:32Z</time>
      </trkpt>
      <trkpt lat="42.933472" lon="0.728960">
        <ele>1478.7</ele>
        <time>2013-04-30T09:24:46Z</time>
      </trkpt>
      <trkpt lat="42.933371" lon="0.729081">
        <ele>1479.6</ele>
        <time>2013-04-30T09:25:09Z</time>
      </trkpt>
      <trkpt lat="42.933255" lon="0.729152">
        <ele>1477.7</ele>
        <time>2013-04-30T09:25:32Z</time>
      </trkpt>
      <trkpt lat="42.933124" lon="0.729193">
        <ele>1473.4</ele>
        <time>2013-04-30T09:26:29Z</time>
      </trkpt>
      <trkpt lat="42.932981" lon="0.729283">
        <ele>1470.9</ele>
        <time>2013-04-30T09:26:43Z</time>
      </trkpt>
      <trkpt lat="42.932842" lon="0.729275">
        <ele>1469.5</ele>
        <time>2013-04-30T09:26:58Z</time>
      </trkpt>
      <trkpt lat="42.932691" lon="0.729336">
        <ele>1465.7</ele>
        <time>2013-04-30T09:27:31Z</time>
      </trkpt>
      <trkpt lat="42.932583" lon="0.729384">
        <ele>1470.0</ele>
        <time>2013-04-30T09:27:46Z</time>
      </trkpt>
      <trkpt lat="42.932448" lon="0.729415">
        <ele>1469.5</ele>
        <time>2013-04-30T09:28:02Z</time>
      </trkpt>
      <trkpt lat="42.932341" lon="0.729467">
        <ele>1468.6</ele>
        <time>2013-04-30T09:28:16Z</time>
      </trkpt>
      <trkpt lat="42.932213" lon="0.729658">
        <ele>1470.9</ele>
        <time>2013-04-30T09:28:43Z</time>
      </trkpt>
      <trkpt lat="42.932037" lon="0.729674">
        <ele>1470.5</ele>
        <time>2013-04-30T09:29:00Z</time>
      </trkpt>
      <trkpt lat="42.931910" lon="0.729582">
        <ele>1467.6</ele>
        <time>2013-04-30T09:29:17Z</time>
      </trkpt>
      <trkpt lat="42.931753" lon="0.729568">
        <ele>1463.7</ele>
        <time>2013-04-30T09:29:37Z</time>
      </trkpt>
      <trkpt lat="42.931605" lon="0.729528">
        <ele>1463.3</ele>
        <time>2013-04-30T09:29:56Z</time>
      </trkpt>
      <trkpt lat="42.931472" lon="0.729478">
        <ele>1463.3</ele>
        <time>2013-04-30T09:30:24Z</time>
      </trkpt>
      <trkpt lat="42.931339" lon="0.729592">
        <ele>1465.2</ele>
        <time>2013-04-30T09:30:41Z</time>
      </trkpt>
      <trkpt lat="42.931212" lon="0.729619">
        <ele>1467.1</ele>
        <time>2013-04-30T09:31:26Z</time>
      </trkpt>
      <trkpt lat="42.931077" lon="0.729692">
        <ele>1468.6</ele>
        <time>2013-04-30T09:31:53Z</time>
      </trkpt>
      <trkpt lat="42.930954" lon="0.729783">
        <ele>1470.5</ele>
        <time>2013-04-30T09:32:10Z</time>
      </trkpt>
      <trkpt lat="42.930821" lon="0.729818">
        <ele>1471.9</ele>
        <time>2013-04-30T09:32:31Z</time>
      </trkpt>
      <trkpt lat="42.930649" lon="0.729851">
        <ele>1469.5</ele>
        <time>2013-04-30T09:32:51Z</time>
      </trkpt>
      <trkpt lat="42.930547" lon="0.729893">
        <ele>1470.0</ele>
        <time>2013-04-30T09:33:06Z</time>
      </trkpt>
      <trkpt lat="42.930416" lon="0.730032">
        <ele>1472.9</ele>
        <time>2013-04-30T09:34:07Z</time>
      </trkpt>
      <trkpt lat="42.930276" lon="0.730112">
        <ele>1476.2</ele>
        <time>2013-04-30T09:34:30Z</time>
      </trkpt>
      <trkpt lat="42.930140" lon="0.730287">
        <ele>1479.1</ele>
        <time>2013-04-30T09:35:02Z</time>
      </trkpt>
      <trkpt lat="42.930015" lon="0.730394">
        <ele>1484.4</ele>
        <time>2013-04-30T09:37:04Z</time>
      </trkpt>
      <trkpt lat="42.929957" lon="0.730549">
        <ele>1488.7</ele>
        <time>2013-04-30T09:37:39Z</time>
      </trkpt>
      <trkpt lat="42.929814" lon="0.730581">
        <ele>1493.1</ele>
        <time>2013-04-30T09:38:05Z</time>
        <name>Fin du GRP</name>
      </trkpt>
      <trkpt lat="42.929750" lon="0.730790">
        <ele>1496.4</ele>
        <time>2013-04-30T09:38:38Z</time>
      </trkpt>
      <trkpt lat="42.929774" lon="0.730941">
        <ele>1501.2</ele>
        <time>2013-04-30T09:39:05Z</time>
      </trkpt>
      <trkpt lat="42.929665" lon="0.731095">
        <ele>1507.0</ele>
        <time>2013-04-30T09:39:44Z</time>
      </trkpt>
      <trkpt lat="42.929666" lon="0.731221">
        <ele>1514.7</ele>
        <time>2013-04-30T09:40:26Z</time>
      </trkpt>
      <trkpt lat="42.929555" lon="0.731457">
        <ele>1522.4</ele>
        <time>2013-04-30T09:41:22Z</time>
      </trkpt>
      <trkpt lat="42.929395" lon="0.731711">
        <ele>1532.0</ele>
        <time>2013-04-30T09:42:21Z</time>
      </trkpt>
      <trkpt lat="42.929307" lon="0.731859">
        <ele>1536.8</ele>
        <time>2013-04-30T09:43:03Z</time>
      </trkpt>
      <trkpt lat="42.929389" lon="0.731975">
        <ele>1541.6</ele>
        <time>2013-04-30T09:43:42Z</time>
      </trkpt>
      <trkpt lat="42.929212" lon="0.732186">
        <ele>1549.8</ele>
        <time>2013-04-30T09:44:34Z</time>
      </trkpt>
      <trkpt lat="42.929248" lon="0.732459">
        <ele>1558.4</ele>
        <time>2013-04-30T09:45:36Z</time>
      </trkpt>
      <trkpt lat="42.929168" lon="0.732741">
        <ele>1566.1</ele>
        <time>2013-04-30T09:46:31Z</time>
      </trkpt>
      <trkpt lat="42.929030" lon="0.732968">
        <ele>1575.7</ele>
        <time>2013-04-30T09:47:28Z</time>
      </trkpt>
      <trkpt lat="42.928952" lon="0.733107">
        <ele>1580.1</ele>
        <time>2013-04-30T09:47:52Z</time>
      </trkpt>
      <trkpt lat="42.928903" lon="0.733155">
        <ele>1583.9</ele>
        <time>2013-04-30T09:48:20Z</time>
      </trkpt>
      <trkpt lat="42.928835" lon="0.733288">
        <ele>1588.7</ele>
        <time>2013-04-30T09:48:52Z</time>
      </trkpt>
      <trkpt lat="42.928792" lon="0.733391">
        <ele>1593.0</ele>
        <time>2013-04-30T09:49:19Z</time>
      </trkpt>
      <trkpt lat="42.928772" lon="0.733534">
        <ele>1597.4</ele>
        <time>2013-04-30T09:49:49Z</time>
      </trkpt>
      <trkpt lat="42.928755" lon="0.733675">
        <ele>1602.2</ele>
        <time>2013-04-30T09:50:15Z</time>
      </trkpt>
      <trkpt lat="42.928770" lon="0.733787">
        <ele>1606.0</ele>
        <time>2013-04-30T09:50:43Z</time>
      </trkpt>
      <trkpt lat="42.928741" lon="0.733908">
        <ele>1610.3</ele>
        <time>2013-04-30T09:51:21Z</time>
      </trkpt>
      <trkpt lat="42.928748" lon="0.734014">
        <ele>1613.2</ele>
        <time>2013-04-30T09:51:41Z</time>
      </trkpt>
      <trkpt lat="42.928716" lon="0.734127">
        <ele>1617.6</ele>
        <time>2013-04-30T09:52:05Z</time>
      </trkpt>
      <trkpt lat="42.928718" lon="0.734248">
        <ele>1621.4</ele>
        <time>2013-04-30T09:52:32Z</time>
      </trkpt>
      <trkpt lat="42.928662" lon="0.734352">
        <ele>1624.8</ele>
        <time>2013-04-30T09:52:55Z</time>
      </trkpt>
      <trkpt lat="42.928665" lon="0.734470">
        <ele>1629.6</ele>
        <time>2013-04-30T09:53:23Z</time>
      </trkpt>
      <trkpt lat="42.928645" lon="0.734586">
        <ele>1633.4</ele>
        <time>2013-04-30T09:53:47Z</time>
      </trkpt>
      <trkpt lat="42.928687" lon="0.734678">
        <ele>1638.2</ele>
        <time>2013-04-30T09:54:12Z</time>
      </trkpt>
      <trkpt lat="42.928741" lon="0.734796">
        <ele>1639.7</ele>
        <time>2013-04-30T09:54:49Z</time>
      </trkpt>
      <trkpt lat="42.928697" lon="0.734877">
        <ele>1643.5</ele>
        <time>2013-04-30T09:55:15Z</time>
      </trkpt>
      <trkpt lat="42.928607" lon="0.734922">
        <ele>1646.9</ele>
        <time>2013-04-30T09:55:33Z</time>
      </trkpt>
      <trkpt lat="42.928594" lon="0.734926">
        <ele>1646.4</ele>
        <time>2013-04-30T09:59:20Z</time>
      </trkpt>
      <trkpt lat="42.928549" lon="0.735014">
        <ele>1648.3</ele>
        <time>2013-04-30T10:01:20Z</time>
      </trkpt>
      <trkpt lat="42.928491" lon="0.735088">
        <ele>1650.2</ele>
        <time>2013-04-30T10:01:38Z</time>
      </trkpt>
      <trkpt lat="42.928458" lon="0.735202">
        <ele>1652.2</ele>
        <time>2013-04-30T10:02:45Z</time>
      </trkpt>
      <trkpt lat="42.928418" lon="0.735319">
        <ele>1653.6</ele>
        <time>2013-04-30T10:02:59Z</time>
      </trkpt>
      <trkpt lat="42.928355" lon="0.735412">
        <ele>1656.0</ele>
        <time>2013-04-30T10:03:13Z</time>
      </trkpt>
      <trkpt lat="42.928322" lon="0.735525">
        <ele>1663.7</ele>
        <time>2013-04-30T10:03:26Z</time>
      </trkpt>
      <trkpt lat="42.928255" lon="0.735631">
        <ele>1659.8</ele>
        <time>2013-04-30T10:03:42Z</time>
      </trkpt>
      <trkpt lat="42.928223" lon="0.735750">
        <ele>1661.8</ele>
        <time>2013-04-30T10:03:56Z</time>
      </trkpt>
      <trkpt lat="42.928228" lon="0.735873">
        <ele>1662.3</ele>
        <time>2013-04-30T10:04:07Z</time>
      </trkpt>
      <trkpt lat="42.928240" lon="0.736016">
        <ele>1662.7</ele>
        <time>2013-04-30T10:04:19Z</time>
      </trkpt>
      <trkpt lat="42.928230" lon="0.736129">
        <ele>1664.7</ele>
        <time>2013-04-30T10:04:31Z</time>
      </trkpt>
      <trkpt lat="42.928170" lon="0.736203">
        <ele>1667.1</ele>
        <time>2013-04-30T10:04:59Z</time>
      </trkpt>
      <trkpt lat="42.928152" lon="0.736329">
        <ele>1669.5</ele>
        <time>2013-04-30T10:05:18Z</time>
      </trkpt>
      <trkpt lat="42.928122" lon="0.736447">
        <ele>1672.3</ele>
        <time>2013-04-30T10:05:33Z</time>
      </trkpt>
      <trkpt lat="42.928147" lon="0.736551">
        <ele>1674.8</ele>
        <time>2013-04-30T10:05:46Z</time>
      </trkpt>
      <trkpt lat="42.928139" lon="0.736669">
        <ele>1678.1</ele>
        <time>2013-04-30T10:06:02Z</time>
      </trkpt>
      <trkpt lat="42.928126" lon="0.736784">
        <ele>1680.5</ele>
        <time>2013-04-30T10:06:18Z</time>
      </trkpt>
      <trkpt lat="42.928152" lon="0.736877">
        <ele>1683.4</ele>
        <time>2013-04-30T10:06:35Z</time>
      </trkpt>
      <trkpt lat="42.928185" lon="0.736994">
        <ele>1684.4</ele>
        <time>2013-04-30T10:06:51Z</time>
      </trkpt>
      <trkpt lat="42.928225" lon="0.737092">
        <ele>1686.3</ele>
        <time>2013-04-30T10:07:04Z</time>
      </trkpt>
      <trkpt lat="42.928250" lon="0.737196">
        <ele>1687.7</ele>
        <time>2013-04-30T10:07:17Z</time>
      </trkpt>
      <trkpt lat="42.928258" lon="0.737314">
        <ele>1688.2</ele>
        <time>2013-04-30T10:07:29Z</time>
      </trkpt>
      <trkpt lat="42.928280" lon="0.737449">
        <ele>1687.7</ele>
        <time>2013-04-30T10:07:42Z</time>
      </trkpt>
      <trkpt lat="42.928316" lon="0.737567">
        <ele>1688.7</ele>
        <time>2013-04-30T10:07:58Z</time>
      </trkpt>
      <trkpt lat="42.928355" lon="0.737689">
        <ele>1690.1</ele>
        <time>2013-04-30T10:08:11Z</time>
      </trkpt>
      <trkpt lat="42.928383" lon="0.737792">
        <ele>1692.5</ele>
        <time>2013-04-30T10:08:25Z</time>
      </trkpt>
      <trkpt lat="42.928388" lon="0.737881">
        <ele>1694.5</ele>
        <time>2013-04-30T10:08:38Z</time>
      </trkpt>
      <trkpt lat="42.928421" lon="0.737955">
        <ele>1696.9</ele>
        <time>2013-04-30T10:08:54Z</time>
      </trkpt>
      <trkpt lat="42.928449" lon="0.738070">
        <ele>1698.8</ele>
        <time>2013-04-30T10:09:14Z</time>
      </trkpt>
      <trkpt lat="42.928494" lon="0.738132">
        <ele>1702.2</ele>
        <time>2013-04-30T10:09:34Z</time>
      </trkpt>
      <trkpt lat="42.928463" lon="0.738172">
        <ele>1703.1</ele>
        <time>2013-04-30T10:11:38Z</time>
      </trkpt>
      <trkpt lat="42.928527" lon="0.738225">
        <ele>1704.6</ele>
        <time>2013-04-30T10:12:14Z</time>
      </trkpt>
      <trkpt lat="42.928589" lon="0.738300">
        <ele>1704.6</ele>
        <time>2013-04-30T10:12:33Z</time>
      </trkpt>
      <trkpt lat="42.928673" lon="0.738381">
        <ele>1706.5</ele>
        <time>2013-04-30T10:12:47Z</time>
      </trkpt>
      <trkpt lat="42.928673" lon="0.738498">
        <ele>1710.8</ele>
        <time>2013-04-30T10:13:07Z</time>
      </trkpt>
      <trkpt lat="42.928717" lon="0.738588">
        <ele>1713.2</ele>
        <time>2013-04-30T10:13:26Z</time>
      </trkpt>
      <trkpt lat="42.928758" lon="0.738682">
        <ele>1717.1</ele>
        <time>2013-04-30T10:13:42Z</time>
      </trkpt>
      <trkpt lat="42.928760" lon="0.738805">
        <ele>1718.5</ele>
        <time>2013-04-30T10:13:57Z</time>
      </trkpt>
      <trkpt lat="42.928760" lon="0.738911">
        <ele>1720.9</ele>
        <time>2013-04-30T10:14:52Z</time>
      </trkpt>
      <trkpt lat="42.928794" lon="0.739015">
        <ele>1723.3</ele>
        <time>2013-04-30T10:15:26Z</time>
      </trkpt>
      <trkpt lat="42.928771" lon="0.739143">
        <ele>1726.2</ele>
        <time>2013-04-30T10:15:43Z</time>
      </trkpt>
      <trkpt lat="42.928777" lon="0.739259">
        <ele>1729.1</ele>
        <time>2013-04-30T10:15:59Z</time>
      </trkpt>
      <trkpt lat="42.928749" lon="0.739370">
        <ele>1731.0</ele>
        <time>2013-04-30T10:16:17Z</time>
      </trkpt>
      <trkpt lat="42.928711" lon="0.739476">
        <ele>1735.8</ele>
        <time>2013-04-30T10:16:33Z</time>
      </trkpt>
      <trkpt lat="42.928692" lon="0.739603">
        <ele>1738.7</ele>
        <time>2013-04-30T10:16:56Z</time>
      </trkpt>
      <trkpt lat="42.928686" lon="0.739699">
        <ele>1741.1</ele>
        <time>2013-04-30T10:17:14Z</time>
      </trkpt>
      <trkpt lat="42.928654" lon="0.739807">
        <ele>1742.5</ele>
        <time>2013-04-30T10:17:29Z</time>
      </trkpt>
      <trkpt lat="42.928621" lon="0.739902">
        <ele>1746.4</ele>
        <time>2013-04-30T10:17:43Z</time>
      </trkpt>
      <trkpt lat="42.928633" lon="0.739978">
        <ele>1744.0</ele>
        <time>2013-04-30T10:19:23Z</time>
      </trkpt>
      <trkpt lat="42.928637" lon="0.740077">
        <ele>1746.4</ele>
        <time>2013-04-30T10:19:43Z</time>
      </trkpt>
      <trkpt lat="42.928607" lon="0.740202">
        <ele>1748.8</ele>
        <time>2013-04-30T10:20:27Z</time>
      </trkpt>
      <trkpt lat="42.928594" lon="0.740320">
        <ele>1750.2</ele>
        <time>2013-04-30T10:20:42Z</time>
      </trkpt>
      <trkpt lat="42.928572" lon="0.740444">
        <ele>1751.2</ele>
        <time>2013-04-30T10:20:56Z</time>
      </trkpt>
      <trkpt lat="42.928575" lon="0.740568">
        <ele>1753.6</ele>
        <time>2013-04-30T10:21:09Z</time>
      </trkpt>
      <trkpt lat="42.928566" lon="0.740678">
        <ele>1755.0</ele>
        <time>2013-04-30T10:21:21Z</time>
      </trkpt>
      <trkpt lat="42.928559" lon="0.740799">
        <ele>1756.5</ele>
        <time>2013-04-30T10:21:36Z</time>
      </trkpt>
      <trkpt lat="42.928554" lon="0.740935">
        <ele>1759.3</ele>
        <time>2013-04-30T10:21:52Z</time>
      </trkpt>
      <trkpt lat="42.928569" lon="0.741058">
        <ele>1761.3</ele>
        <time>2013-04-30T10:22:10Z</time>
      </trkpt>
      <trkpt lat="42.928586" lon="0.741181">
        <ele>1765.1</ele>
        <time>2013-04-30T10:22:26Z</time>
      </trkpt>
      <trkpt lat="42.928595" lon="0.741261">
        <ele>1766.6</ele>
        <time>2013-04-30T10:22:41Z</time>
      </trkpt>
      <trkpt lat="42.928669" lon="0.741330">
        <ele>1770.9</ele>
        <time>2013-04-30T10:23:09Z</time>
      </trkpt>
      <trkpt lat="42.928668" lon="0.741446">
        <ele>1775.7</ele>
        <time>2013-04-30T10:23:39Z</time>
      </trkpt>
      <trkpt lat="42.928680" lon="0.741540">
        <ele>1777.1</ele>
        <time>2013-04-30T10:24:06Z</time>
      </trkpt>
      <trkpt lat="42.928680" lon="0.741627">
        <ele>1781.5</ele>
        <time>2013-04-30T10:24:40Z</time>
      </trkpt>
      <trkpt lat="42.928665" lon="0.741731">
        <ele>1783.4</ele>
        <time>2013-04-30T10:25:10Z</time>
      </trkpt>
      <trkpt lat="42.928656" lon="0.741827">
        <ele>1786.3</ele>
        <time>2013-04-30T10:25:56Z</time>
      </trkpt>
      <trkpt lat="42.928601" lon="0.741936">
        <ele>1789.6</ele>
        <time>2013-04-30T10:26:19Z</time>
      </trkpt>
      <trkpt lat="42.928587" lon="0.742050">
        <ele>1793.0</ele>
        <time>2013-04-30T10:26:41Z</time>
      </trkpt>
      <trkpt lat="42.928603" lon="0.742142">
        <ele>1796.4</ele>
        <time>2013-04-30T10:27:08Z</time>
      </trkpt>
      <trkpt lat="42.928578" lon="0.742257">
        <ele>1801.2</ele>
        <time>2013-04-30T10:27:32Z</time>
      </trkpt>
      <trkpt lat="42.928584" lon="0.742382">
        <ele>1804.1</ele>
        <time>2013-04-30T10:27:54Z</time>
      </trkpt>
      <trkpt lat="42.928600" lon="0.742482">
        <ele>1804.5</ele>
        <time>2013-04-30T10:28:13Z</time>
      </trkpt>
      <trkpt lat="42.928621" lon="0.742600">
        <ele>1806.0</ele>
        <time>2013-04-30T10:29:23Z</time>
      </trkpt>
      <trkpt lat="42.928632" lon="0.742704">
        <ele>1808.4</ele>
        <time>2013-04-30T10:29:41Z</time>
      </trkpt>
      <trkpt lat="42.928608" lon="0.742823">
        <ele>1809.8</ele>
        <time>2013-04-30T10:30:07Z</time>
      </trkpt>
      <trkpt lat="42.928664" lon="0.742941">
        <ele>1808.9</ele>
        <time>2013-04-30T10:30:21Z</time>
      </trkpt>
      <trkpt lat="42.928688" lon="0.743035">
        <ele>1809.8</ele>
        <time>2013-04-30T10:33:36Z</time>
      </trkpt>
      <trkpt lat="42.928741" lon="0.743092">
        <ele>1807.4</ele>
        <time>2013-04-30T10:33:57Z</time>
      </trkpt>
      <trkpt lat="42.928774" lon="0.743216">
        <ele>1807.4</ele>
        <time>2013-04-30T10:34:11Z</time>
      </trkpt>
      <trkpt lat="42.928835" lon="0.743311">
        <ele>1806.0</ele>
        <time>2013-04-30T10:34:23Z</time>
      </trkpt>
      <trkpt lat="42.928875" lon="0.743416">
        <ele>1806.0</ele>
        <time>2013-04-30T10:34:35Z</time>
      </trkpt>
      <trkpt lat="42.928938" lon="0.743516">
        <ele>1806.0</ele>
        <time>2013-04-30T10:34:50Z</time>
      </trkpt>
      <trkpt lat="42.928967" lon="0.743630">
        <ele>1806.4</ele>
        <time>2013-04-30T10:35:04Z</time>
      </trkpt>
      <trkpt lat="42.929005" lon="0.743737">
        <ele>1807.4</ele>
        <time>2013-04-30T10:35:22Z</time>
      </trkpt>
      <trkpt lat="42.929020" lon="0.743859">
        <ele>1808.9</ele>
        <time>2013-04-30T10:35:43Z</time>
      </trkpt>
      <trkpt lat="42.929025" lon="0.743988">
        <ele>1812.2</ele>
        <time>2013-04-30T10:35:59Z</time>
      </trkpt>
      <trkpt lat="42.929103" lon="0.744048">
        <ele>1812.2</ele>
        <time>2013-04-30T10:36:17Z</time>
      </trkpt>
      <trkpt lat="42.929120" lon="0.744166">
        <ele>1814.6</ele>
        <time>2013-04-30T10:36:40Z</time>
      </trkpt>
      <trkpt lat="42.929177" lon="0.744277">
        <ele>1815.1</ele>
        <time>2013-04-30T10:36:59Z</time>
      </trkpt>
      <trkpt lat="42.929210" lon="0.744393">
        <ele>1816.1</ele>
        <time>2013-04-30T10:37:16Z</time>
      </trkpt>
      <trkpt lat="42.929179" lon="0.744512">
        <ele>1817.5</ele>
        <time>2013-04-30T10:37:39Z</time>
      </trkpt>
      <trkpt lat="42.929192" lon="0.744630">
        <ele>1817.0</ele>
        <time>2013-04-30T10:37:55Z</time>
      </trkpt>
      <trkpt lat="42.929223" lon="0.744783">
        <ele>1817.0</ele>
        <time>2013-04-30T10:38:11Z</time>
      </trkpt>
      <trkpt lat="42.929251" lon="0.744919">
        <ele>1817.0</ele>
        <time>2013-04-30T10:38:25Z</time>
      </trkpt>
      <trkpt lat="42.929266" lon="0.745050">
        <ele>1816.6</ele>
        <time>2013-04-30T10:38:40Z</time>
      </trkpt>
      <trkpt lat="42.929295" lon="0.745182">
        <ele>1817.5</ele>
        <time>2013-04-30T10:38:53Z</time>
      </trkpt>
      <trkpt lat="42.929322" lon="0.745276">
        <ele>1818.5</ele>
        <time>2013-04-30T10:39:05Z</time>
      </trkpt>
      <trkpt lat="42.929384" lon="0.745373">
        <ele>1818.0</ele>
        <time>2013-04-30T10:39:20Z</time>
      </trkpt>
      <trkpt lat="42.929440" lon="0.745479">
        <ele>1817.5</ele>
        <time>2013-04-30T10:39:34Z</time>
      </trkpt>
      <trkpt lat="42.929520" lon="0.745545">
        <ele>1815.6</ele>
        <time>2013-04-30T10:39:51Z</time>
      </trkpt>
      <trkpt lat="42.929586" lon="0.745670">
        <ele>1813.7</ele>
        <time>2013-04-30T10:40:08Z</time>
      </trkpt>
      <trkpt lat="42.929658" lon="0.745748">
        <ele>1812.7</ele>
        <time>2013-04-30T10:41:32Z</time>
      </trkpt>
      <trkpt lat="42.929689" lon="0.745859">
        <ele>1813.2</ele>
        <time>2013-04-30T10:41:50Z</time>
      </trkpt>
      <trkpt lat="42.929750" lon="0.745965">
        <ele>1814.2</ele>
        <time>2013-04-30T10:42:04Z</time>
      </trkpt>
      <trkpt lat="42.929798" lon="0.746068">
        <ele>1816.6</ele>
        <time>2013-04-30T10:42:25Z</time>
      </trkpt>
      <trkpt lat="42.929829" lon="0.746183">
        <ele>1818.5</ele>
        <time>2013-04-30T10:42:40Z</time>
      </trkpt>
      <trkpt lat="42.929872" lon="0.746292">
        <ele>1819.4</ele>
        <time>2013-04-30T10:42:56Z</time>
      </trkpt>
      <trkpt lat="42.929934" lon="0.746387">
        <ele>1820.9</ele>
        <time>2013-04-30T10:43:09Z</time>
      </trkpt>
      <trkpt lat="42.929982" lon="0.746473">
        <ele>1821.8</ele>
        <time>2013-04-30T10:43:20Z</time>
      </trkpt>
      <trkpt lat="42.930028" lon="0.746536">
        <ele>1821.3</ele>
        <time>2013-04-30T10:43:32Z</time>
      </trkpt>
      <trkpt lat="42.930073" lon="0.746659">
        <ele>1822.8</ele>
        <time>2013-04-30T10:43:54Z</time>
      </trkpt>
      <trkpt lat="42.930138" lon="0.746636">
        <ele>1820.9</ele>
        <time>2013-04-30T10:44:53Z</time>
      </trkpt>
      <trkpt lat="42.930207" lon="0.746676">
        <ele>1819.9</ele>
        <time>2013-04-30T10:45:04Z</time>
      </trkpt>
      <trkpt lat="42.930209" lon="0.746787">
        <ele>1818.0</ele>
        <time>2013-04-30T10:45:36Z</time>
      </trkpt>
      <trkpt lat="42.930221" lon="0.746910">
        <ele>1816.6</ele>
        <time>2013-04-30T10:46:35Z</time>
      </trkpt>
      <trkpt lat="42.930182" lon="0.747033">
        <ele>1816.1</ele>
        <time>2013-04-30T10:46:48Z</time>
      </trkpt>
      <trkpt lat="42.930141" lon="0.747104">
        <ele>1814.2</ele>
        <time>2013-04-30T10:47:15Z</time>
      </trkpt>
      <trkpt lat="42.930080" lon="0.747226">
        <ele>1814.2</ele>
        <time>2013-04-30T10:47:26Z</time>
      </trkpt>
      <trkpt lat="42.930005" lon="0.747284">
        <ele>1813.7</ele>
        <time>2013-04-30T10:47:40Z</time>
      </trkpt>
      <trkpt lat="42.929990" lon="0.747413">
        <ele>1814.6</ele>
        <time>2013-04-30T10:48:08Z</time>
      </trkpt>
      <trkpt lat="42.929982" lon="0.747553">
        <ele>1810.8</ele>
        <time>2013-04-30T10:48:20Z</time>
      </trkpt>
      <trkpt lat="42.929949" lon="0.747674">
        <ele>1814.2</ele>
        <time>2013-04-30T10:48:33Z</time>
      </trkpt>
      <trkpt lat="42.929938" lon="0.747801">
        <ele>1815.1</ele>
        <time>2013-04-30T10:48:47Z</time>
      </trkpt>
      <trkpt lat="42.929956" lon="0.747945">
        <ele>1816.1</ele>
        <time>2013-04-30T10:49:03Z</time>
      </trkpt>
      <trkpt lat="42.929945" lon="0.748075">
        <ele>1818.0</ele>
        <time>2013-04-30T10:49:18Z</time>
      </trkpt>
      <trkpt lat="42.929980" lon="0.748176">
        <ele>1818.5</ele>
        <time>2013-04-30T10:49:30Z</time>
      </trkpt>
      <trkpt lat="42.929986" lon="0.748307">
        <ele>1817.5</ele>
        <time>2013-04-30T10:49:41Z</time>
      </trkpt>
      <trkpt lat="42.929985" lon="0.748427">
        <ele>1815.1</ele>
        <time>2013-04-30T10:49:53Z</time>
      </trkpt>
      <trkpt lat="42.929969" lon="0.748558">
        <ele>1814.6</ele>
        <time>2013-04-30T10:50:06Z</time>
      </trkpt>
      <trkpt lat="42.929978" lon="0.748685">
        <ele>1815.1</ele>
        <time>2013-04-30T10:50:36Z</time>
      </trkpt>
      <trkpt lat="42.929989" lon="0.748816">
        <ele>1815.6</ele>
        <time>2013-04-30T10:50:46Z</time>
      </trkpt>
      <trkpt lat="42.929995" lon="0.748953">
        <ele>1814.6</ele>
        <time>2013-04-30T10:50:57Z</time>
      </trkpt>
      <trkpt lat="42.929978" lon="0.749092">
        <ele>1815.6</ele>
        <time>2013-04-30T10:51:08Z</time>
      </trkpt>
      <trkpt lat="42.929957" lon="0.749217">
        <ele>1815.6</ele>
        <time>2013-04-30T10:51:19Z</time>
      </trkpt>
      <trkpt lat="42.929920" lon="0.749330">
        <ele>1815.6</ele>
        <time>2013-04-30T10:51:30Z</time>
      </trkpt>
      <trkpt lat="42.929860" lon="0.749392">
        <ele>1817.0</ele>
        <time>2013-04-30T10:52:32Z</time>
      </trkpt>
      <trkpt lat="42.929827" lon="0.749501">
        <ele>1818.5</ele>
        <time>2013-04-30T10:52:46Z</time>
      </trkpt>
      <trkpt lat="42.929726" lon="0.749539">
        <ele>1819.9</ele>
        <time>2013-04-30T10:53:51Z</time>
      </trkpt>
      <trkpt lat="42.929700" lon="0.749638">
        <ele>1822.3</ele>
        <time>2013-04-30T10:54:04Z</time>
      </trkpt>
      <trkpt lat="42.929650" lon="0.749706">
        <ele>1825.2</ele>
        <time>2013-04-30T10:54:27Z</time>
      </trkpt>
      <trkpt lat="42.929615" lon="0.749782">
        <ele>1828.1</ele>
        <time>2013-04-30T10:54:46Z</time>
      </trkpt>
      <trkpt lat="42.929576" lon="0.749854">
        <ele>1831.0</ele>
        <time>2013-04-30T10:55:40Z</time>
      </trkpt>
      <trkpt lat="42.929507" lon="0.749913">
        <ele>1834.8</ele>
        <time>2013-04-30T10:56:01Z</time>
      </trkpt>
      <trkpt lat="42.929511" lon="0.750013">
        <ele>1835.8</ele>
        <time>2013-04-30T10:56:18Z</time>
      </trkpt>
      <trkpt lat="42.929476" lon="0.750112">
        <ele>1835.3</ele>
        <time>2013-04-30T10:56:32Z</time>
      </trkpt>
      <trkpt lat="42.929391" lon="0.750127">
        <ele>1830.5</ele>
        <time>2013-04-30T10:56:46Z</time>
      </trkpt>
      <trkpt lat="42.929372" lon="0.750238">
        <ele>1828.6</ele>
        <time>2013-04-30T10:56:58Z</time>
      </trkpt>
      <trkpt lat="42.929351" lon="0.750365">
        <ele>1826.2</ele>
        <time>2013-04-30T10:57:08Z</time>
      </trkpt>
      <trkpt lat="42.929294" lon="0.750461">
        <ele>1825.7</ele>
        <time>2013-04-30T10:57:24Z</time>
      </trkpt>
      <trkpt lat="42.929216" lon="0.750540">
        <ele>1823.8</ele>
        <time>2013-04-30T10:57:33Z</time>
      </trkpt>
      <trkpt lat="42.929156" lon="0.750654">
        <ele>1824.7</ele>
        <time>2013-04-30T10:57:44Z</time>
      </trkpt>
      <trkpt lat="42.929103" lon="0.750746">
        <ele>1822.3</ele>
        <time>2013-04-30T10:57:55Z</time>
      </trkpt>
      <trkpt lat="42.929028" lon="0.750841">
        <ele>1818.5</ele>
        <time>2013-04-30T10:58:07Z</time>
      </trkpt>
      <trkpt lat="42.928951" lon="0.750924">
        <ele>1815.1</ele>
        <time>2013-04-30T10:58:17Z</time>
      </trkpt>
      <trkpt lat="42.928904" lon="0.751010">
        <ele>1813.7</ele>
        <time>2013-04-30T10:58:27Z</time>
      </trkpt>
      <trkpt lat="42.928880" lon="0.751126">
        <ele>1812.2</ele>
        <time>2013-04-30T10:58:42Z</time>
      </trkpt>
      <trkpt lat="42.928816" lon="0.751142">
        <ele>1812.7</ele>
        <time>2013-04-30T10:59:13Z</time>
      </trkpt>
      <trkpt lat="42.928723" lon="0.751137">
        <ele>1815.1</ele>
        <time>2013-04-30T10:59:31Z</time>
      </trkpt>
      <trkpt lat="42.928633" lon="0.751191">
        <ele>1817.5</ele>
        <time>2013-04-30T10:59:55Z</time>
      </trkpt>
      <trkpt lat="42.928565" lon="0.751278">
        <ele>1820.4</ele>
        <time>2013-04-30T11:00:11Z</time>
      </trkpt>
      <trkpt lat="42.928509" lon="0.751398">
        <ele>1824.2</ele>
        <time>2013-04-30T11:00:35Z</time>
      </trkpt>
      <trkpt lat="42.928431" lon="0.751444">
        <ele>1827.1</ele>
        <time>2013-04-30T11:00:57Z</time>
      </trkpt>
      <trkpt lat="42.928360" lon="0.751511">
        <ele>1831.9</ele>
        <time>2013-04-30T11:01:22Z</time>
      </trkpt>
      <trkpt lat="42.928325" lon="0.751593">
        <ele>1835.8</ele>
        <time>2013-04-30T11:01:54Z</time>
      </trkpt>
      <trkpt lat="42.928274" lon="0.751675">
        <ele>1840.6</ele>
        <time>2013-04-30T11:02:24Z</time>
      </trkpt>
      <trkpt lat="42.928234" lon="0.751774">
        <ele>1845.4</ele>
        <time>2013-04-30T11:02:49Z</time>
      </trkpt>
      <trkpt lat="42.928164" lon="0.751832">
        <ele>1849.2</ele>
        <time>2013-04-30T11:03:24Z</time>
      </trkpt>
      <trkpt lat="42.928234" lon="0.751861">
        <ele>1852.1</ele>
        <time>2013-04-30T11:03:49Z</time>
      </trkpt>
      <trkpt lat="42.928193" lon="0.751886">
        <ele>1852.1</ele>
        <time>2013-04-30T11:05:45Z</time>
      </trkpt>
      <trkpt lat="42.928106" lon="0.751887">
        <ele>1851.6</ele>
        <time>2013-04-30T11:06:00Z</time>
      </trkpt>
      <trkpt lat="42.928022" lon="0.751869">
        <ele>1853.6</ele>
        <time>2013-04-30T11:06:20Z</time>
      </trkpt>
      <trkpt lat="42.927938" lon="0.751854">
        <ele>1855.0</ele>
        <time>2013-04-30T11:06:45Z</time>
      </trkpt>
      <trkpt lat="42.927874" lon="0.751899">
        <ele>1854.5</ele>
        <time>2013-04-30T11:07:36Z</time>
      </trkpt>
      <trkpt lat="42.927870" lon="0.751948">
        <ele>1853.1</ele>
        <time>2013-04-30T11:08:13Z</time>
      </trkpt>
      <trkpt lat="42.927802" lon="0.752011">
        <ele>1850.2</ele>
        <time>2013-04-30T11:08:41Z</time>
        <name>Pic de l Escalette</name>
       </trkpt>
    </trkseg>
  </trk>
</gpx>

